<?xml version="1.0" encoding="UTF-8" standalone="no" ?>
<gpx xmlns="http://www.topografix.com/GPX/1/1" xmlns:xsi="http://www.w3.org/2001/XMLSchema-instance" xsi:schemaLocation="http://www.topografix.com/GPX/1/1 http://www.topografix.com/GPX/1/1/gpx.xsd" version="1.1" creator="VisuGPX - https://www.visugpx.com">
  <metadata>
    <name>Pinet - echelle a Jacquot</name>
    <desc><![CDATA[cf
http://www.skitour.fr/sorties/sommet-du-pinet,46673.html]]></desc>
  </metadata>
  <trk>
    <name><![CDATA[ACTIVE LOG- 17 FEV 2013 09-22]]></name>
    <trkseg>
      <trkpt lat="45.41119" lon="5.88798">
        <ele>1054.22</ele>
        <time>2013-02-17T08:22:52Z</time>
      </trkpt>
      <trkpt lat="45.41129" lon="5.88841">
        <ele>1057.11</ele>
        <time>2013-02-17T08:23:10Z</time>
      </trkpt>
      <trkpt lat="45.41119" lon="5.8885">
        <ele>1060.47</ele>
        <time>2013-02-17T08:23:29Z</time>
      </trkpt>
      <trkpt lat="45.41113" lon="5.88861">
        <ele>1063.36</ele>
        <time>2013-02-17T08:23:46Z</time>
      </trkpt>
      <trkpt lat="45.41112" lon="5.88862">
        <ele>1063.84</ele>
        <time>2013-02-17T08:23:48Z</time>
      </trkpt>
      <trkpt lat="45.41109" lon="5.88864">
        <ele>1064.32</ele>
        <time>2013-02-17T08:23:51Z</time>
      </trkpt>
      <trkpt lat="45.41105" lon="5.88873">
        <ele>1067.2</ele>
        <time>2013-02-17T08:24:12Z</time>
      </trkpt>
      <trkpt lat="45.41096" lon="5.8888">
        <ele>1070.08</ele>
        <time>2013-02-17T08:24:27Z</time>
      </trkpt>
      <trkpt lat="45.41089" lon="5.88886">
        <ele>1073.45</ele>
        <time>2013-02-17T08:24:41Z</time>
      </trkpt>
      <trkpt lat="45.41082" lon="5.88894">
        <ele>1076.33</ele>
        <time>2013-02-17T08:24:55Z</time>
      </trkpt>
      <trkpt lat="45.41076" lon="5.88902">
        <ele>1079.7</ele>
        <time>2013-02-17T08:25:09Z</time>
      </trkpt>
      <trkpt lat="45.41069" lon="5.88908">
        <ele>1082.58</ele>
        <time>2013-02-17T08:25:21Z</time>
      </trkpt>
      <trkpt lat="45.41063" lon="5.88915">
        <ele>1085.47</ele>
        <time>2013-02-17T08:25:35Z</time>
      </trkpt>
      <trkpt lat="45.41058" lon="5.88922">
        <ele>1087.87</ele>
        <time>2013-02-17T08:25:47Z</time>
      </trkpt>
      <trkpt lat="45.4105" lon="5.88932">
        <ele>1090.75</ele>
        <time>2013-02-17T08:26:00Z</time>
      </trkpt>
      <trkpt lat="45.41048" lon="5.88942">
        <ele>1092.68</ele>
        <time>2013-02-17T08:26:11Z</time>
      </trkpt>
      <trkpt lat="45.41045" lon="5.88954">
        <ele>1096.04</ele>
        <time>2013-02-17T08:26:26Z</time>
      </trkpt>
      <trkpt lat="45.41044" lon="5.88959">
        <ele>1096.52</ele>
        <time>2013-02-17T08:26:30Z</time>
      </trkpt>
      <trkpt lat="45.41032" lon="5.88983">
        <ele>1094.6</ele>
        <time>2013-02-17T08:26:44Z</time>
      </trkpt>
      <trkpt lat="45.41027" lon="5.89018">
        <ele>1092.68</ele>
        <time>2013-02-17T08:27:04Z</time>
      </trkpt>
      <trkpt lat="45.41029" lon="5.89049">
        <ele>1094.12</ele>
        <time>2013-02-17T08:27:24Z</time>
      </trkpt>
      <trkpt lat="45.4103" lon="5.89088">
        <ele>1093.64</ele>
        <time>2013-02-17T08:27:46Z</time>
      </trkpt>
      <trkpt lat="45.41029" lon="5.89115">
        <ele>1094.12</ele>
        <time>2013-02-17T08:28:04Z</time>
      </trkpt>
      <trkpt lat="45.41021" lon="5.89125">
        <ele>1093.64</ele>
        <time>2013-02-17T08:28:08Z</time>
      </trkpt>
      <trkpt lat="45.40998" lon="5.89149">
        <ele>1091.23</ele>
        <time>2013-02-17T08:28:23Z</time>
      </trkpt>
      <trkpt lat="45.40984" lon="5.89163">
        <ele>1088.83</ele>
        <time>2013-02-17T08:28:33Z</time>
      </trkpt>
      <trkpt lat="45.40977" lon="5.8917">
        <ele>1088.83</ele>
        <time>2013-02-17T08:28:41Z</time>
      </trkpt>
      <trkpt lat="45.40966" lon="5.89179">
        <ele>1089.31</ele>
        <time>2013-02-17T08:28:53Z</time>
      </trkpt>
      <trkpt lat="45.40966" lon="5.8918">
        <ele>1089.31</ele>
        <time>2013-02-17T08:28:54Z</time>
      </trkpt>
      <trkpt lat="45.40963" lon="5.89198">
        <ele>1090.27</ele>
        <time>2013-02-17T08:29:15Z</time>
      </trkpt>
      <trkpt lat="45.40942" lon="5.89224">
        <ele>1089.31</ele>
        <time>2013-02-17T08:29:32Z</time>
      </trkpt>
      <trkpt lat="45.40931" lon="5.89229">
        <ele>1086.43</ele>
        <time>2013-02-17T08:29:40Z</time>
      </trkpt>
      <trkpt lat="45.40913" lon="5.89238">
        <ele>1084.99</ele>
        <time>2013-02-17T08:29:52Z</time>
      </trkpt>
      <trkpt lat="45.40905" lon="5.89248">
        <ele>1084.99</ele>
        <time>2013-02-17T08:30:04Z</time>
      </trkpt>
      <trkpt lat="45.40898" lon="5.89253">
        <ele>1085.95</ele>
        <time>2013-02-17T08:30:10Z</time>
      </trkpt>
      <trkpt lat="45.40867" lon="5.89283">
        <ele>1085.47</ele>
        <time>2013-02-17T08:30:26Z</time>
      </trkpt>
      <trkpt lat="45.40858" lon="5.89297">
        <ele>1085.47</ele>
        <time>2013-02-17T08:30:36Z</time>
      </trkpt>
      <trkpt lat="45.40853" lon="5.89314">
        <ele>1087.39</ele>
        <time>2013-02-17T08:30:49Z</time>
      </trkpt>
      <trkpt lat="45.4085" lon="5.89354">
        <ele>1084.5</ele>
        <time>2013-02-17T08:31:05Z</time>
      </trkpt>
      <trkpt lat="45.40848" lon="5.89361">
        <ele>1083.54</ele>
        <time>2013-02-17T08:31:08Z</time>
      </trkpt>
      <trkpt lat="45.40843" lon="5.89376">
        <ele>1082.58</ele>
        <time>2013-02-17T08:31:19Z</time>
      </trkpt>
      <trkpt lat="45.40842" lon="5.89405">
        <ele>1082.58</ele>
        <time>2013-02-17T08:31:37Z</time>
      </trkpt>
      <trkpt lat="45.40845" lon="5.89426">
        <ele>1084.5</ele>
        <time>2013-02-17T08:31:52Z</time>
      </trkpt>
      <trkpt lat="45.40836" lon="5.89453">
        <ele>1087.39</ele>
        <time>2013-02-17T08:32:10Z</time>
      </trkpt>
      <trkpt lat="45.40825" lon="5.89472">
        <ele>1090.27</ele>
        <time>2013-02-17T08:32:30Z</time>
      </trkpt>
      <trkpt lat="45.40811" lon="5.89496">
        <ele>1089.31</ele>
        <time>2013-02-17T08:32:47Z</time>
      </trkpt>
      <trkpt lat="45.40813" lon="5.89503">
        <ele>1089.79</ele>
        <time>2013-02-17T08:32:59Z</time>
      </trkpt>
      <trkpt lat="45.40814" lon="5.89507">
        <ele>1090.27</ele>
        <time>2013-02-17T08:33:18Z</time>
      </trkpt>
      <trkpt lat="45.40808" lon="5.89511">
        <ele>1092.2</ele>
        <time>2013-02-17T08:34:31Z</time>
      </trkpt>
      <trkpt lat="45.40785" lon="5.89521">
        <ele>1095.08</ele>
        <time>2013-02-17T08:36:00Z</time>
      </trkpt>
      <trkpt lat="45.40794" lon="5.89519">
        <ele>1095.08</ele>
        <time>2013-02-17T08:36:42Z</time>
      </trkpt>
      <trkpt lat="45.40794" lon="5.89511">
        <ele>1091.71</ele>
        <time>2013-02-17T08:36:51Z</time>
      </trkpt>
      <trkpt lat="45.40804" lon="5.89512">
        <ele>1092.68</ele>
        <time>2013-02-17T08:37:11Z</time>
      </trkpt>
      <trkpt lat="45.40802" lon="5.89517">
        <ele>1096.04</ele>
        <time>2013-02-17T08:37:30Z</time>
      </trkpt>
      <trkpt lat="45.40801" lon="5.89521">
        <ele>1096.52</ele>
        <time>2013-02-17T08:37:35Z</time>
      </trkpt>
      <trkpt lat="45.40788" lon="5.89542">
        <ele>1099.89</ele>
        <time>2013-02-17T08:37:56Z</time>
      </trkpt>
      <trkpt lat="45.40783" lon="5.89542">
        <ele>1100.85</ele>
        <time>2013-02-17T08:38:01Z</time>
      </trkpt>
      <trkpt lat="45.40767" lon="5.89548">
        <ele>1101.33</ele>
        <time>2013-02-17T08:38:14Z</time>
      </trkpt>
      <trkpt lat="45.40752" lon="5.89548">
        <ele>1104.21</ele>
        <time>2013-02-17T08:38:28Z</time>
      </trkpt>
      <trkpt lat="45.40727" lon="5.89552">
        <ele>1103.25</ele>
        <time>2013-02-17T08:38:47Z</time>
      </trkpt>
      <trkpt lat="45.40703" lon="5.89549">
        <ele>1105.65</ele>
        <time>2013-02-17T08:39:08Z</time>
      </trkpt>
      <trkpt lat="45.40682" lon="5.89544">
        <ele>1108.06</ele>
        <time>2013-02-17T08:39:27Z</time>
      </trkpt>
      <trkpt lat="45.40655" lon="5.89533">
        <ele>1110.46</ele>
        <time>2013-02-17T08:39:54Z</time>
      </trkpt>
      <trkpt lat="45.40636" lon="5.89523">
        <ele>1113.82</ele>
        <time>2013-02-17T08:40:13Z</time>
      </trkpt>
      <trkpt lat="45.40616" lon="5.89514">
        <ele>1117.19</ele>
        <time>2013-02-17T08:40:36Z</time>
      </trkpt>
      <trkpt lat="45.40607" lon="5.89506">
        <ele>1119.11</ele>
        <time>2013-02-17T08:40:45Z</time>
      </trkpt>
      <trkpt lat="45.40573" lon="5.89497">
        <ele>1117.67</ele>
        <time>2013-02-17T08:40:59Z</time>
      </trkpt>
      <trkpt lat="45.40558" lon="5.89504">
        <ele>1121.03</ele>
        <time>2013-02-17T08:41:20Z</time>
      </trkpt>
      <trkpt lat="45.4055" lon="5.8951">
        <ele>1123.92</ele>
        <time>2013-02-17T08:41:34Z</time>
      </trkpt>
      <trkpt lat="45.40541" lon="5.89508">
        <ele>1126.32</ele>
        <time>2013-02-17T08:41:46Z</time>
      </trkpt>
      <trkpt lat="45.40521" lon="5.89518">
        <ele>1128.73</ele>
        <time>2013-02-17T08:42:05Z</time>
      </trkpt>
      <trkpt lat="45.40522" lon="5.89523">
        <ele>1129.69</ele>
        <time>2013-02-17T08:42:09Z</time>
      </trkpt>
      <trkpt lat="45.40519" lon="5.89533">
        <ele>1131.13</ele>
        <time>2013-02-17T08:42:17Z</time>
      </trkpt>
      <trkpt lat="45.40509" lon="5.89551">
        <ele>1130.17</ele>
        <time>2013-02-17T08:42:29Z</time>
      </trkpt>
      <trkpt lat="45.40505" lon="5.89556">
        <ele>1130.17</ele>
        <time>2013-02-17T08:42:33Z</time>
      </trkpt>
      <trkpt lat="45.4049" lon="5.89565">
        <ele>1131.61</ele>
        <time>2013-02-17T08:42:48Z</time>
      </trkpt>
      <trkpt lat="45.40468" lon="5.89577">
        <ele>1133.05</ele>
        <time>2013-02-17T08:43:08Z</time>
      </trkpt>
      <trkpt lat="45.40451" lon="5.89587">
        <ele>1135.94</ele>
        <time>2013-02-17T08:43:26Z</time>
      </trkpt>
      <trkpt lat="45.40446" lon="5.89591">
        <ele>1136.42</ele>
        <time>2013-02-17T08:43:31Z</time>
      </trkpt>
      <trkpt lat="45.40435" lon="5.89614">
        <ele>1135.94</ele>
        <time>2013-02-17T08:43:46Z</time>
      </trkpt>
      <trkpt lat="45.40432" lon="5.89639">
        <ele>1134.01</ele>
        <time>2013-02-17T08:43:56Z</time>
      </trkpt>
      <trkpt lat="45.40426" lon="5.89663">
        <ele>1134.01</ele>
        <time>2013-02-17T08:44:11Z</time>
      </trkpt>
      <trkpt lat="45.4042" lon="5.89691">
        <ele>1134.01</ele>
        <time>2013-02-17T08:44:27Z</time>
      </trkpt>
      <trkpt lat="45.40408" lon="5.89722">
        <ele>1135.45</ele>
        <time>2013-02-17T08:44:47Z</time>
      </trkpt>
      <trkpt lat="45.40405" lon="5.89735">
        <ele>1134.97</ele>
        <time>2013-02-17T08:44:56Z</time>
      </trkpt>
      <trkpt lat="45.40395" lon="5.89754">
        <ele>1137.86</ele>
        <time>2013-02-17T08:45:15Z</time>
      </trkpt>
      <trkpt lat="45.40395" lon="5.89755">
        <ele>1138.34</ele>
        <time>2013-02-17T08:45:16Z</time>
      </trkpt>
      <trkpt lat="45.40384" lon="5.89785">
        <ele>1139.3</ele>
        <time>2013-02-17T08:45:37Z</time>
      </trkpt>
      <trkpt lat="45.40383" lon="5.89795">
        <ele>1140.74</ele>
        <time>2013-02-17T08:45:46Z</time>
      </trkpt>
      <trkpt lat="45.40384" lon="5.89828">
        <ele>1144.11</ele>
        <time>2013-02-17T08:46:09Z</time>
      </trkpt>
      <trkpt lat="45.4038" lon="5.89846">
        <ele>1147.47</ele>
        <time>2013-02-17T08:46:23Z</time>
      </trkpt>
      <trkpt lat="45.40376" lon="5.89861">
        <ele>1150.35</ele>
        <time>2013-02-17T08:46:41Z</time>
      </trkpt>
      <trkpt lat="45.40375" lon="5.89876">
        <ele>1153.24</ele>
        <time>2013-02-17T08:46:56Z</time>
      </trkpt>
      <trkpt lat="45.40371" lon="5.89896">
        <ele>1156.6</ele>
        <time>2013-02-17T08:47:15Z</time>
      </trkpt>
      <trkpt lat="45.40366" lon="5.89915">
        <ele>1159.49</ele>
        <time>2013-02-17T08:47:32Z</time>
      </trkpt>
      <trkpt lat="45.40361" lon="5.89931">
        <ele>1162.85</ele>
        <time>2013-02-17T08:47:49Z</time>
      </trkpt>
      <trkpt lat="45.40355" lon="5.89943">
        <ele>1165.74</ele>
        <time>2013-02-17T08:48:03Z</time>
      </trkpt>
      <trkpt lat="45.40353" lon="5.89956">
        <ele>1169.1</ele>
        <time>2013-02-17T08:48:18Z</time>
      </trkpt>
      <trkpt lat="45.40348" lon="5.89968">
        <ele>1172.47</ele>
        <time>2013-02-17T08:48:32Z</time>
      </trkpt>
      <trkpt lat="45.40347" lon="5.89982">
        <ele>1175.35</ele>
        <time>2013-02-17T08:48:46Z</time>
      </trkpt>
      <trkpt lat="45.40346" lon="5.89992">
        <ele>1178.71</ele>
        <time>2013-02-17T08:49:01Z</time>
      </trkpt>
      <trkpt lat="45.40347" lon="5.90004">
        <ele>1181.6</ele>
        <time>2013-02-17T08:49:15Z</time>
      </trkpt>
      <trkpt lat="45.40345" lon="5.90018">
        <ele>1184.48</ele>
        <time>2013-02-17T08:49:32Z</time>
      </trkpt>
      <trkpt lat="45.40345" lon="5.90028">
        <ele>1187.37</ele>
        <time>2013-02-17T08:49:46Z</time>
      </trkpt>
      <trkpt lat="45.40341" lon="5.90037">
        <ele>1190.73</ele>
        <time>2013-02-17T08:50:02Z</time>
      </trkpt>
      <trkpt lat="45.4034" lon="5.90054">
        <ele>1193.61</ele>
        <time>2013-02-17T08:50:18Z</time>
      </trkpt>
      <trkpt lat="45.40338" lon="5.90066">
        <ele>1196.98</ele>
        <time>2013-02-17T08:50:31Z</time>
      </trkpt>
      <trkpt lat="45.40337" lon="5.90077">
        <ele>1199.38</ele>
        <time>2013-02-17T08:50:43Z</time>
      </trkpt>
      <trkpt lat="45.40339" lon="5.9008">
        <ele>1199.86</ele>
        <time>2013-02-17T08:50:46Z</time>
      </trkpt>
      <trkpt lat="45.40338" lon="5.90091">
        <ele>1202.27</ele>
        <time>2013-02-17T08:50:56Z</time>
      </trkpt>
      <trkpt lat="45.40337" lon="5.90092">
        <ele>1202.27</ele>
        <time>2013-02-17T08:50:57Z</time>
      </trkpt>
      <trkpt lat="45.40338" lon="5.90098">
        <ele>1202.75</ele>
        <time>2013-02-17T08:51:02Z</time>
      </trkpt>
      <trkpt lat="45.40338" lon="5.90106">
        <ele>1204.67</ele>
        <time>2013-02-17T08:51:13Z</time>
      </trkpt>
      <trkpt lat="45.40335" lon="5.90123">
        <ele>1208.03</ele>
        <time>2013-02-17T08:51:29Z</time>
      </trkpt>
      <trkpt lat="45.40338" lon="5.90134">
        <ele>1210.92</ele>
        <time>2013-02-17T08:51:46Z</time>
      </trkpt>
      <trkpt lat="45.40341" lon="5.90144">
        <ele>1213.8</ele>
        <time>2013-02-17T08:52:06Z</time>
      </trkpt>
      <trkpt lat="45.4034" lon="5.90156">
        <ele>1217.17</ele>
        <time>2013-02-17T08:52:23Z</time>
      </trkpt>
      <trkpt lat="45.40334" lon="5.90163">
        <ele>1220.53</ele>
        <time>2013-02-17T08:52:39Z</time>
      </trkpt>
      <trkpt lat="45.40326" lon="5.90172">
        <ele>1222.93</ele>
        <time>2013-02-17T08:52:56Z</time>
      </trkpt>
      <trkpt lat="45.40322" lon="5.90185">
        <ele>1226.3</ele>
        <time>2013-02-17T08:53:14Z</time>
      </trkpt>
      <trkpt lat="45.40323" lon="5.90198">
        <ele>1229.18</ele>
        <time>2013-02-17T08:53:32Z</time>
      </trkpt>
      <trkpt lat="45.40323" lon="5.902">
        <ele>1230.14</ele>
        <time>2013-02-17T08:54:07Z</time>
      </trkpt>
      <trkpt lat="45.40323" lon="5.90215">
        <ele>1233.03</ele>
        <time>2013-02-17T08:54:26Z</time>
      </trkpt>
      <trkpt lat="45.40322" lon="5.90226">
        <ele>1236.39</ele>
        <time>2013-02-17T08:54:39Z</time>
      </trkpt>
      <trkpt lat="45.4032" lon="5.90241">
        <ele>1239.28</ele>
        <time>2013-02-17T08:54:59Z</time>
      </trkpt>
      <trkpt lat="45.40322" lon="5.90255">
        <ele>1242.64</ele>
        <time>2013-02-17T08:55:17Z</time>
      </trkpt>
      <trkpt lat="45.40326" lon="5.90264">
        <ele>1245.53</ele>
        <time>2013-02-17T08:55:32Z</time>
      </trkpt>
      <trkpt lat="45.40331" lon="5.90277">
        <ele>1247.93</ele>
        <time>2013-02-17T08:55:50Z</time>
      </trkpt>
      <trkpt lat="45.40335" lon="5.90289">
        <ele>1250.81</ele>
        <time>2013-02-17T08:56:06Z</time>
      </trkpt>
      <trkpt lat="45.40336" lon="5.903">
        <ele>1254.18</ele>
        <time>2013-02-17T08:56:26Z</time>
      </trkpt>
      <trkpt lat="45.4034" lon="5.90293">
        <ele>1257.06</ele>
        <time>2013-02-17T08:56:44Z</time>
      </trkpt>
      <trkpt lat="45.40349" lon="5.9029">
        <ele>1259.94</ele>
        <time>2013-02-17T08:56:57Z</time>
      </trkpt>
      <trkpt lat="45.40352" lon="5.903">
        <ele>1263.31</ele>
        <time>2013-02-17T08:57:13Z</time>
      </trkpt>
      <trkpt lat="45.40356" lon="5.90315">
        <ele>1266.19</ele>
        <time>2013-02-17T08:57:35Z</time>
      </trkpt>
      <trkpt lat="45.40355" lon="5.90328">
        <ele>1269.08</ele>
        <time>2013-02-17T08:57:51Z</time>
      </trkpt>
      <trkpt lat="45.40356" lon="5.90339">
        <ele>1272.44</ele>
        <time>2013-02-17T08:58:08Z</time>
      </trkpt>
      <trkpt lat="45.4036" lon="5.90351">
        <ele>1275.33</ele>
        <time>2013-02-17T08:58:24Z</time>
      </trkpt>
      <trkpt lat="45.40359" lon="5.90363">
        <ele>1278.69</ele>
        <time>2013-02-17T08:58:39Z</time>
      </trkpt>
      <trkpt lat="45.40355" lon="5.90374">
        <ele>1281.57</ele>
        <time>2013-02-17T08:58:56Z</time>
      </trkpt>
      <trkpt lat="45.40352" lon="5.90383">
        <ele>1284.46</ele>
        <time>2013-02-17T08:59:12Z</time>
      </trkpt>
      <trkpt lat="45.40347" lon="5.90388">
        <ele>1286.38</ele>
        <time>2013-02-17T08:59:35Z</time>
      </trkpt>
      <trkpt lat="45.40347" lon="5.90396">
        <ele>1288.3</ele>
        <time>2013-02-17T08:59:58Z</time>
      </trkpt>
      <trkpt lat="45.40351" lon="5.90407">
        <ele>1291.67</ele>
        <time>2013-02-17T09:00:15Z</time>
      </trkpt>
      <trkpt lat="45.40351" lon="5.90409">
        <ele>1293.11</ele>
        <time>2013-02-17T09:00:31Z</time>
      </trkpt>
      <trkpt lat="45.40354" lon="5.90414">
        <ele>1294.07</ele>
        <time>2013-02-17T09:00:45Z</time>
      </trkpt>
      <trkpt lat="45.40354" lon="5.90418">
        <ele>1296.96</ele>
        <time>2013-02-17T09:01:24Z</time>
      </trkpt>
      <trkpt lat="45.40355" lon="5.90427">
        <ele>1299.36</ele>
        <time>2013-02-17T09:01:43Z</time>
      </trkpt>
      <trkpt lat="45.40357" lon="5.90428">
        <ele>1300.32</ele>
        <time>2013-02-17T09:01:47Z</time>
      </trkpt>
      <trkpt lat="45.40367" lon="5.90438">
        <ele>1301.76</ele>
        <time>2013-02-17T09:02:02Z</time>
      </trkpt>
      <trkpt lat="45.40366" lon="5.90444">
        <ele>1304.17</ele>
        <time>2013-02-17T09:02:12Z</time>
      </trkpt>
      <trkpt lat="45.40368" lon="5.90449">
        <ele>1306.09</ele>
        <time>2013-02-17T09:02:24Z</time>
      </trkpt>
      <trkpt lat="45.40373" lon="5.90457">
        <ele>1308.97</ele>
        <time>2013-02-17T09:02:43Z</time>
      </trkpt>
      <trkpt lat="45.40372" lon="5.90463">
        <ele>1311.86</ele>
        <time>2013-02-17T09:03:09Z</time>
      </trkpt>
      <trkpt lat="45.4037" lon="5.90467">
        <ele>1315.22</ele>
        <time>2013-02-17T09:03:27Z</time>
      </trkpt>
      <trkpt lat="45.40374" lon="5.9048">
        <ele>1318.1</ele>
        <time>2013-02-17T09:03:43Z</time>
      </trkpt>
      <trkpt lat="45.40373" lon="5.90488">
        <ele>1320.51</ele>
        <time>2013-02-17T09:03:59Z</time>
      </trkpt>
      <trkpt lat="45.40365" lon="5.90488">
        <ele>1323.87</ele>
        <time>2013-02-17T09:04:15Z</time>
      </trkpt>
      <trkpt lat="45.4036" lon="5.9049">
        <ele>1326.76</ele>
        <time>2013-02-17T09:04:29Z</time>
      </trkpt>
      <trkpt lat="45.40362" lon="5.90495">
        <ele>1329.16</ele>
        <time>2013-02-17T09:04:42Z</time>
      </trkpt>
      <trkpt lat="45.40365" lon="5.90499">
        <ele>1332.04</ele>
        <time>2013-02-17T09:05:04Z</time>
      </trkpt>
      <trkpt lat="45.40364" lon="5.90506">
        <ele>1333.97</ele>
        <time>2013-02-17T09:05:19Z</time>
      </trkpt>
      <trkpt lat="45.40364" lon="5.90511">
        <ele>1336.85</ele>
        <time>2013-02-17T09:05:38Z</time>
      </trkpt>
      <trkpt lat="45.4037" lon="5.90519">
        <ele>1340.22</ele>
        <time>2013-02-17T09:05:55Z</time>
      </trkpt>
      <trkpt lat="45.40371" lon="5.90521">
        <ele>1340.7</ele>
        <time>2013-02-17T09:06:15Z</time>
      </trkpt>
      <trkpt lat="45.40365" lon="5.90525">
        <ele>1343.1</ele>
        <time>2013-02-17T09:06:35Z</time>
      </trkpt>
      <trkpt lat="45.40358" lon="5.90526">
        <ele>1345.98</ele>
        <time>2013-02-17T09:06:49Z</time>
      </trkpt>
      <trkpt lat="45.40348" lon="5.90521">
        <ele>1349.35</ele>
        <time>2013-02-17T09:07:02Z</time>
      </trkpt>
      <trkpt lat="45.40342" lon="5.90525">
        <ele>1352.23</ele>
        <time>2013-02-17T09:07:15Z</time>
      </trkpt>
      <trkpt lat="45.40334" lon="5.90525">
        <ele>1355.6</ele>
        <time>2013-02-17T09:07:28Z</time>
      </trkpt>
      <trkpt lat="45.40331" lon="5.90528">
        <ele>1358.48</ele>
        <time>2013-02-17T09:07:53Z</time>
      </trkpt>
      <trkpt lat="45.40331" lon="5.90532">
        <ele>1360.4</ele>
        <time>2013-02-17T09:08:23Z</time>
      </trkpt>
      <trkpt lat="45.40331" lon="5.90532">
        <ele>1361.36</ele>
        <time>2013-02-17T09:08:38Z</time>
      </trkpt>
      <trkpt lat="45.40336" lon="5.90539">
        <ele>1363.29</ele>
        <time>2013-02-17T09:08:52Z</time>
      </trkpt>
      <trkpt lat="45.40346" lon="5.90537">
        <ele>1364.73</ele>
        <time>2013-02-17T09:09:04Z</time>
      </trkpt>
      <trkpt lat="45.4035" lon="5.90542">
        <ele>1367.61</ele>
        <time>2013-02-17T09:09:15Z</time>
      </trkpt>
      <trkpt lat="45.40357" lon="5.90554">
        <ele>1370.98</ele>
        <time>2013-02-17T09:09:30Z</time>
      </trkpt>
      <trkpt lat="45.40357" lon="5.90558">
        <ele>1372.42</ele>
        <time>2013-02-17T09:09:46Z</time>
      </trkpt>
      <trkpt lat="45.4036" lon="5.90557">
        <ele>1373.38</ele>
        <time>2013-02-17T09:10:01Z</time>
      </trkpt>
      <trkpt lat="45.40363" lon="5.90559">
        <ele>1374.34</ele>
        <time>2013-02-17T09:10:11Z</time>
      </trkpt>
      <trkpt lat="45.40365" lon="5.90559">
        <ele>1374.82</ele>
        <time>2013-02-17T09:10:27Z</time>
      </trkpt>
      <trkpt lat="45.40371" lon="5.90563">
        <ele>1375.78</ele>
        <time>2013-02-17T09:10:50Z</time>
      </trkpt>
      <trkpt lat="45.4038" lon="5.90569">
        <ele>1379.15</ele>
        <time>2013-02-17T09:11:13Z</time>
      </trkpt>
      <trkpt lat="45.40386" lon="5.90569">
        <ele>1381.55</ele>
        <time>2013-02-17T09:11:29Z</time>
      </trkpt>
      <trkpt lat="45.40389" lon="5.90575">
        <ele>1382.99</ele>
        <time>2013-02-17T09:11:42Z</time>
      </trkpt>
      <trkpt lat="45.40385" lon="5.90584">
        <ele>1385.88</ele>
        <time>2013-02-17T09:12:03Z</time>
      </trkpt>
      <trkpt lat="45.40379" lon="5.90583">
        <ele>1387.32</ele>
        <time>2013-02-17T09:12:21Z</time>
      </trkpt>
      <trkpt lat="45.40383" lon="5.90585">
        <ele>1388.76</ele>
        <time>2013-02-17T09:12:38Z</time>
      </trkpt>
      <trkpt lat="45.40386" lon="5.90592">
        <ele>1392.13</ele>
        <time>2013-02-17T09:12:51Z</time>
      </trkpt>
      <trkpt lat="45.40389" lon="5.906">
        <ele>1395.49</ele>
        <time>2013-02-17T09:13:08Z</time>
      </trkpt>
      <trkpt lat="45.40395" lon="5.90608">
        <ele>1398.37</ele>
        <time>2013-02-17T09:13:23Z</time>
      </trkpt>
      <trkpt lat="45.40401" lon="5.90617">
        <ele>1401.74</ele>
        <time>2013-02-17T09:13:38Z</time>
      </trkpt>
      <trkpt lat="45.40404" lon="5.90623">
        <ele>1404.62</ele>
        <time>2013-02-17T09:13:53Z</time>
      </trkpt>
      <trkpt lat="45.40406" lon="5.9063">
        <ele>1407.03</ele>
        <time>2013-02-17T09:14:07Z</time>
      </trkpt>
      <trkpt lat="45.40408" lon="5.90635">
        <ele>1408.95</ele>
        <time>2013-02-17T09:14:19Z</time>
      </trkpt>
      <trkpt lat="45.40408" lon="5.90647">
        <ele>1411.35</ele>
        <time>2013-02-17T09:14:35Z</time>
      </trkpt>
      <trkpt lat="45.40412" lon="5.90659">
        <ele>1414.72</ele>
        <time>2013-02-17T09:14:55Z</time>
      </trkpt>
      <trkpt lat="45.40417" lon="5.90671">
        <ele>1417.6</ele>
        <time>2013-02-17T09:15:13Z</time>
      </trkpt>
      <trkpt lat="45.40421" lon="5.9068">
        <ele>1420.49</ele>
        <time>2013-02-17T09:15:31Z</time>
      </trkpt>
      <trkpt lat="45.40417" lon="5.90688">
        <ele>1422.41</ele>
        <time>2013-02-17T09:15:51Z</time>
      </trkpt>
      <trkpt lat="45.40414" lon="5.90691">
        <ele>1425.77</ele>
        <time>2013-02-17T09:16:11Z</time>
      </trkpt>
      <trkpt lat="45.40418" lon="5.907">
        <ele>1428.18</ele>
        <time>2013-02-17T09:16:27Z</time>
      </trkpt>
      <trkpt lat="45.40422" lon="5.90707">
        <ele>1431.06</ele>
        <time>2013-02-17T09:16:47Z</time>
      </trkpt>
      <trkpt lat="45.40424" lon="5.90714">
        <ele>1434.42</ele>
        <time>2013-02-17T09:17:03Z</time>
      </trkpt>
      <trkpt lat="45.40426" lon="5.90722">
        <ele>1435.87</ele>
        <time>2013-02-17T09:17:16Z</time>
      </trkpt>
      <trkpt lat="45.4043" lon="5.90729">
        <ele>1438.27</ele>
        <time>2013-02-17T09:17:30Z</time>
      </trkpt>
      <trkpt lat="45.40432" lon="5.9074">
        <ele>1440.67</ele>
        <time>2013-02-17T09:17:44Z</time>
      </trkpt>
      <trkpt lat="45.40433" lon="5.90745">
        <ele>1442.11</ele>
        <time>2013-02-17T09:17:58Z</time>
      </trkpt>
      <trkpt lat="45.40434" lon="5.90749">
        <ele>1443.08</ele>
        <time>2013-02-17T09:18:10Z</time>
      </trkpt>
      <trkpt lat="45.40434" lon="5.90754">
        <ele>1444.04</ele>
        <time>2013-02-17T09:18:15Z</time>
      </trkpt>
      <trkpt lat="45.40435" lon="5.9076">
        <ele>1445</ele>
        <time>2013-02-17T09:18:19Z</time>
      </trkpt>
      <trkpt lat="45.40439" lon="5.90773">
        <ele>1446.44</ele>
        <time>2013-02-17T09:18:33Z</time>
      </trkpt>
      <trkpt lat="45.40444" lon="5.90783">
        <ele>1448.84</ele>
        <time>2013-02-17T09:18:47Z</time>
      </trkpt>
      <trkpt lat="45.40452" lon="5.90796">
        <ele>1449.32</ele>
        <time>2013-02-17T09:18:57Z</time>
      </trkpt>
      <trkpt lat="45.40456" lon="5.90808">
        <ele>1449.81</ele>
        <time>2013-02-17T09:19:07Z</time>
      </trkpt>
      <trkpt lat="45.4046" lon="5.90814">
        <ele>1450.77</ele>
        <time>2013-02-17T09:19:14Z</time>
      </trkpt>
      <trkpt lat="45.40465" lon="5.90834">
        <ele>1452.21</ele>
        <time>2013-02-17T09:19:27Z</time>
      </trkpt>
      <trkpt lat="45.40469" lon="5.90839">
        <ele>1452.21</ele>
        <time>2013-02-17T09:19:39Z</time>
      </trkpt>
      <trkpt lat="45.4047" lon="5.90841">
        <ele>1452.21</ele>
        <time>2013-02-17T09:19:46Z</time>
      </trkpt>
      <trkpt lat="45.40476" lon="5.90856">
        <ele>1453.17</ele>
        <time>2013-02-17T09:19:59Z</time>
      </trkpt>
      <trkpt lat="45.40482" lon="5.90867">
        <ele>1453.65</ele>
        <time>2013-02-17T09:20:09Z</time>
      </trkpt>
      <trkpt lat="45.40487" lon="5.9087">
        <ele>1453.17</ele>
        <time>2013-02-17T09:20:23Z</time>
      </trkpt>
      <trkpt lat="45.40499" lon="5.90886">
        <ele>1453.65</ele>
        <time>2013-02-17T09:21:37Z</time>
      </trkpt>
      <trkpt lat="45.4051" lon="5.90904">
        <ele>1454.61</ele>
        <time>2013-02-17T09:21:54Z</time>
      </trkpt>
      <trkpt lat="45.40521" lon="5.90923">
        <ele>1456.05</ele>
        <time>2013-02-17T09:22:10Z</time>
      </trkpt>
      <trkpt lat="45.40534" lon="5.90944">
        <ele>1457.98</ele>
        <time>2013-02-17T09:22:29Z</time>
      </trkpt>
      <trkpt lat="45.40545" lon="5.90965">
        <ele>1458.46</ele>
        <time>2013-02-17T09:22:46Z</time>
      </trkpt>
      <trkpt lat="45.40555" lon="5.90978">
        <ele>1459.42</ele>
        <time>2013-02-17T09:23:00Z</time>
      </trkpt>
      <trkpt lat="45.40566" lon="5.90995">
        <ele>1459.9</ele>
        <time>2013-02-17T09:23:15Z</time>
      </trkpt>
      <trkpt lat="45.40576" lon="5.9101">
        <ele>1460.86</ele>
        <time>2013-02-17T09:23:27Z</time>
      </trkpt>
      <trkpt lat="45.40588" lon="5.91018">
        <ele>1461.34</ele>
        <time>2013-02-17T09:23:40Z</time>
      </trkpt>
      <trkpt lat="45.40599" lon="5.91034">
        <ele>1462.78</ele>
        <time>2013-02-17T09:23:54Z</time>
      </trkpt>
      <trkpt lat="45.40614" lon="5.91051">
        <ele>1463.26</ele>
        <time>2013-02-17T09:24:14Z</time>
      </trkpt>
      <trkpt lat="45.40627" lon="5.91075">
        <ele>1466.15</ele>
        <time>2013-02-17T09:24:38Z</time>
      </trkpt>
      <trkpt lat="45.40635" lon="5.91077">
        <ele>1468.55</ele>
        <time>2013-02-17T09:24:51Z</time>
      </trkpt>
      <trkpt lat="45.40635" lon="5.91076">
        <ele>1468.55</ele>
        <time>2013-02-17T09:24:52Z</time>
      </trkpt>
      <trkpt lat="45.40642" lon="5.91079">
        <ele>1470.95</ele>
        <time>2013-02-17T09:25:02Z</time>
      </trkpt>
      <trkpt lat="45.40643" lon="5.91079">
        <ele>1471.44</ele>
        <time>2013-02-17T09:25:04Z</time>
      </trkpt>
      <trkpt lat="45.40649" lon="5.91088">
        <ele>1474.32</ele>
        <time>2013-02-17T09:25:16Z</time>
      </trkpt>
      <trkpt lat="45.40651" lon="5.91088">
        <ele>1474.8</ele>
        <time>2013-02-17T09:25:19Z</time>
      </trkpt>
      <trkpt lat="45.40656" lon="5.91097">
        <ele>1477.2</ele>
        <time>2013-02-17T09:25:32Z</time>
      </trkpt>
      <trkpt lat="45.40661" lon="5.91107">
        <ele>1479.13</ele>
        <time>2013-02-17T09:25:44Z</time>
      </trkpt>
      <trkpt lat="45.40664" lon="5.91118">
        <ele>1480.57</ele>
        <time>2013-02-17T09:25:57Z</time>
      </trkpt>
      <trkpt lat="45.40664" lon="5.91123">
        <ele>1480.57</ele>
        <time>2013-02-17T09:25:59Z</time>
      </trkpt>
      <trkpt lat="45.40668" lon="5.91152">
        <ele>1482.01</ele>
        <time>2013-02-17T09:26:17Z</time>
      </trkpt>
      <trkpt lat="45.40669" lon="5.91155">
        <ele>1482.01</ele>
        <time>2013-02-17T09:26:20Z</time>
      </trkpt>
      <trkpt lat="45.40679" lon="5.91174">
        <ele>1483.45</ele>
        <time>2013-02-17T09:26:37Z</time>
      </trkpt>
      <trkpt lat="45.40691" lon="5.91195">
        <ele>1485.37</ele>
        <time>2013-02-17T09:26:59Z</time>
      </trkpt>
      <trkpt lat="45.40705" lon="5.91217">
        <ele>1488.74</ele>
        <time>2013-02-17T09:27:20Z</time>
      </trkpt>
      <trkpt lat="45.40713" lon="5.91228">
        <ele>1490.66</ele>
        <time>2013-02-17T09:27:39Z</time>
      </trkpt>
      <trkpt lat="45.40717" lon="5.91239">
        <ele>1493.06</ele>
        <time>2013-02-17T09:27:53Z</time>
      </trkpt>
      <trkpt lat="45.40729" lon="5.9126">
        <ele>1494.51</ele>
        <time>2013-02-17T09:28:12Z</time>
      </trkpt>
      <trkpt lat="45.40737" lon="5.91281">
        <ele>1496.91</ele>
        <time>2013-02-17T09:28:36Z</time>
      </trkpt>
      <trkpt lat="45.40747" lon="5.91298">
        <ele>1499.31</ele>
        <time>2013-02-17T09:28:58Z</time>
      </trkpt>
      <trkpt lat="45.40748" lon="5.91305">
        <ele>1500.27</ele>
        <time>2013-02-17T09:29:09Z</time>
      </trkpt>
      <trkpt lat="45.4075" lon="5.91312">
        <ele>1501.72</ele>
        <time>2013-02-17T09:29:15Z</time>
      </trkpt>
      <trkpt lat="45.40753" lon="5.91315">
        <ele>1502.68</ele>
        <time>2013-02-17T09:29:21Z</time>
      </trkpt>
      <trkpt lat="45.40761" lon="5.91323">
        <ele>1504.6</ele>
        <time>2013-02-17T09:29:34Z</time>
      </trkpt>
      <trkpt lat="45.40764" lon="5.91326">
        <ele>1505.56</ele>
        <time>2013-02-17T09:29:38Z</time>
      </trkpt>
      <trkpt lat="45.40767" lon="5.91331">
        <ele>1506.04</ele>
        <time>2013-02-17T09:29:43Z</time>
      </trkpt>
      <trkpt lat="45.40774" lon="5.91342">
        <ele>1507.97</ele>
        <time>2013-02-17T09:29:55Z</time>
      </trkpt>
      <trkpt lat="45.40777" lon="5.91354">
        <ele>1509.41</ele>
        <time>2013-02-17T09:30:06Z</time>
      </trkpt>
      <trkpt lat="45.40781" lon="5.91359">
        <ele>1510.85</ele>
        <time>2013-02-17T09:30:16Z</time>
      </trkpt>
      <trkpt lat="45.40784" lon="5.91358">
        <ele>1510.85</ele>
        <time>2013-02-17T09:30:19Z</time>
      </trkpt>
      <trkpt lat="45.40794" lon="5.91372">
        <ele>1513.25</ele>
        <time>2013-02-17T09:30:36Z</time>
      </trkpt>
      <trkpt lat="45.408" lon="5.91382">
        <ele>1514.21</ele>
        <time>2013-02-17T09:30:46Z</time>
      </trkpt>
      <trkpt lat="45.40803" lon="5.91392">
        <ele>1515.18</ele>
        <time>2013-02-17T09:30:57Z</time>
      </trkpt>
      <trkpt lat="45.40811" lon="5.9141">
        <ele>1517.58</ele>
        <time>2013-02-17T09:31:14Z</time>
      </trkpt>
      <trkpt lat="45.40817" lon="5.91423">
        <ele>1519.5</ele>
        <time>2013-02-17T09:31:34Z</time>
      </trkpt>
      <trkpt lat="45.40822" lon="5.91438">
        <ele>1522.39</ele>
        <time>2013-02-17T09:31:53Z</time>
      </trkpt>
      <trkpt lat="45.40833" lon="5.91446">
        <ele>1525.27</ele>
        <time>2013-02-17T09:32:10Z</time>
      </trkpt>
      <trkpt lat="45.40834" lon="5.91446">
        <ele>1526.23</ele>
        <time>2013-02-17T09:32:23Z</time>
      </trkpt>
      <trkpt lat="45.40835" lon="5.91446">
        <ele>1526.23</ele>
        <time>2013-02-17T09:33:01Z</time>
      </trkpt>
      <trkpt lat="45.40839" lon="5.91452">
        <ele>1526.71</ele>
        <time>2013-02-17T09:33:20Z</time>
      </trkpt>
      <trkpt lat="45.40856" lon="5.91468">
        <ele>1528.63</ele>
        <time>2013-02-17T09:33:39Z</time>
      </trkpt>
      <trkpt lat="45.40867" lon="5.91479">
        <ele>1529.59</ele>
        <time>2013-02-17T09:33:51Z</time>
      </trkpt>
      <trkpt lat="45.40878" lon="5.91488">
        <ele>1531.52</ele>
        <time>2013-02-17T09:34:03Z</time>
      </trkpt>
      <trkpt lat="45.4089" lon="5.91497">
        <ele>1533.44</ele>
        <time>2013-02-17T09:34:18Z</time>
      </trkpt>
      <trkpt lat="45.40896" lon="5.91507">
        <ele>1534.4</ele>
        <time>2013-02-17T09:34:27Z</time>
      </trkpt>
      <trkpt lat="45.40901" lon="5.91519">
        <ele>1537.29</ele>
        <time>2013-02-17T09:34:39Z</time>
      </trkpt>
      <trkpt lat="45.40902" lon="5.91522">
        <ele>1537.77</ele>
        <time>2013-02-17T09:34:42Z</time>
      </trkpt>
      <trkpt lat="45.40906" lon="5.91538">
        <ele>1540.17</ele>
        <time>2013-02-17T09:34:57Z</time>
      </trkpt>
      <trkpt lat="45.4091" lon="5.9155">
        <ele>1542.09</ele>
        <time>2013-02-17T09:35:09Z</time>
      </trkpt>
      <trkpt lat="45.40913" lon="5.91554">
        <ele>1543.05</ele>
        <time>2013-02-17T09:35:17Z</time>
      </trkpt>
      <trkpt lat="45.4092" lon="5.91563">
        <ele>1544.98</ele>
        <time>2013-02-17T09:35:30Z</time>
      </trkpt>
      <trkpt lat="45.40927" lon="5.91564">
        <ele>1546.42</ele>
        <time>2013-02-17T09:35:42Z</time>
      </trkpt>
      <trkpt lat="45.40931" lon="5.91565">
        <ele>1547.38</ele>
        <time>2013-02-17T09:35:53Z</time>
      </trkpt>
      <trkpt lat="45.40933" lon="5.91565">
        <ele>1548.82</ele>
        <time>2013-02-17T09:36:06Z</time>
      </trkpt>
      <trkpt lat="45.40937" lon="5.91566">
        <ele>1550.74</ele>
        <time>2013-02-17T09:36:16Z</time>
      </trkpt>
      <trkpt lat="45.4094" lon="5.91566">
        <ele>1552.19</ele>
        <time>2013-02-17T09:36:31Z</time>
      </trkpt>
      <trkpt lat="45.40944" lon="5.91572">
        <ele>1554.11</ele>
        <time>2013-02-17T09:36:45Z</time>
      </trkpt>
      <trkpt lat="45.40948" lon="5.91583">
        <ele>1556.51</ele>
        <time>2013-02-17T09:36:57Z</time>
      </trkpt>
      <trkpt lat="45.4095" lon="5.91594">
        <ele>1558.43</ele>
        <time>2013-02-17T09:37:09Z</time>
      </trkpt>
      <trkpt lat="45.40948" lon="5.91601">
        <ele>1560.36</ele>
        <time>2013-02-17T09:37:21Z</time>
      </trkpt>
      <trkpt lat="45.40947" lon="5.91603">
        <ele>1560.84</ele>
        <time>2013-02-17T09:37:58Z</time>
      </trkpt>
      <trkpt lat="45.40944" lon="5.91616">
        <ele>1562.28</ele>
        <time>2013-02-17T09:38:09Z</time>
      </trkpt>
      <trkpt lat="45.40942" lon="5.91626">
        <ele>1563.72</ele>
        <time>2013-02-17T09:38:17Z</time>
      </trkpt>
      <trkpt lat="45.40947" lon="5.91645">
        <ele>1565.16</ele>
        <time>2013-02-17T09:38:32Z</time>
      </trkpt>
      <trkpt lat="45.4095" lon="5.91659">
        <ele>1566.61</ele>
        <time>2013-02-17T09:38:41Z</time>
      </trkpt>
      <trkpt lat="45.40952" lon="5.9167">
        <ele>1569.49</ele>
        <time>2013-02-17T09:38:52Z</time>
      </trkpt>
      <trkpt lat="45.40958" lon="5.91677">
        <ele>1572.37</ele>
        <time>2013-02-17T09:39:05Z</time>
      </trkpt>
      <trkpt lat="45.40962" lon="5.91685">
        <ele>1574.78</ele>
        <time>2013-02-17T09:39:16Z</time>
      </trkpt>
      <trkpt lat="45.40963" lon="5.91692">
        <ele>1576.7</ele>
        <time>2013-02-17T09:39:28Z</time>
      </trkpt>
      <trkpt lat="45.40965" lon="5.91697">
        <ele>1577.66</ele>
        <time>2013-02-17T09:39:43Z</time>
      </trkpt>
      <trkpt lat="45.40966" lon="5.91698">
        <ele>1578.14</ele>
        <time>2013-02-17T09:40:02Z</time>
      </trkpt>
      <trkpt lat="45.40966" lon="5.91698">
        <ele>1577.66</ele>
        <time>2013-02-17T09:40:54Z</time>
      </trkpt>
      <trkpt lat="45.40968" lon="5.917">
        <ele>1578.14</ele>
        <time>2013-02-17T09:41:53Z</time>
      </trkpt>
      <trkpt lat="45.40979" lon="5.9171">
        <ele>1579.58</ele>
        <time>2013-02-17T09:42:07Z</time>
      </trkpt>
      <trkpt lat="45.40988" lon="5.91723">
        <ele>1580.06</ele>
        <time>2013-02-17T09:42:21Z</time>
      </trkpt>
      <trkpt lat="45.41" lon="5.91735">
        <ele>1581.51</ele>
        <time>2013-02-17T09:42:36Z</time>
      </trkpt>
      <trkpt lat="45.41008" lon="5.91745">
        <ele>1582.95</ele>
        <time>2013-02-17T09:42:52Z</time>
      </trkpt>
      <trkpt lat="45.41009" lon="5.91747">
        <ele>1582.95</ele>
        <time>2013-02-17T09:43:12Z</time>
      </trkpt>
      <trkpt lat="45.41009" lon="5.91747">
        <ele>1583.43</ele>
        <time>2013-02-17T09:44:19Z</time>
      </trkpt>
      <trkpt lat="45.41009" lon="5.91746">
        <ele>1583.43</ele>
        <time>2013-02-17T09:45:23Z</time>
      </trkpt>
      <trkpt lat="45.41008" lon="5.91746">
        <ele>1583.43</ele>
        <time>2013-02-17T09:45:28Z</time>
      </trkpt>
      <trkpt lat="45.40989" lon="5.91726">
        <ele>1581.03</ele>
        <time>2013-02-17T09:45:43Z</time>
      </trkpt>
      <trkpt lat="45.40975" lon="5.91711">
        <ele>1579.58</ele>
        <time>2013-02-17T09:45:54Z</time>
      </trkpt>
      <trkpt lat="45.40963" lon="5.917">
        <ele>1578.14</ele>
        <time>2013-02-17T09:46:08Z</time>
      </trkpt>
      <trkpt lat="45.40961" lon="5.9169">
        <ele>1577.18</ele>
        <time>2013-02-17T09:46:23Z</time>
      </trkpt>
      <trkpt lat="45.40961" lon="5.91689">
        <ele>1576.7</ele>
        <time>2013-02-17T09:46:25Z</time>
      </trkpt>
      <trkpt lat="45.40951" lon="5.91676">
        <ele>1572.85</ele>
        <time>2013-02-17T09:46:30Z</time>
      </trkpt>
      <trkpt lat="45.4095" lon="5.91672">
        <ele>1572.85</ele>
        <time>2013-02-17T09:46:31Z</time>
      </trkpt>
      <trkpt lat="45.40945" lon="5.91653">
        <ele>1569.01</ele>
        <time>2013-02-17T09:46:34Z</time>
      </trkpt>
      <trkpt lat="45.40944" lon="5.91648">
        <ele>1568.05</ele>
        <time>2013-02-17T09:46:35Z</time>
      </trkpt>
      <trkpt lat="45.40941" lon="5.91635">
        <ele>1564.2</ele>
        <time>2013-02-17T09:46:43Z</time>
      </trkpt>
      <trkpt lat="45.4094" lon="5.91619">
        <ele>1562.76</ele>
        <time>2013-02-17T09:46:55Z</time>
      </trkpt>
      <trkpt lat="45.40946" lon="5.91604">
        <ele>1560.36</ele>
        <time>2013-02-17T09:47:03Z</time>
      </trkpt>
      <trkpt lat="45.4095" lon="5.91594">
        <ele>1557.95</ele>
        <time>2013-02-17T09:47:09Z</time>
      </trkpt>
      <trkpt lat="45.4095" lon="5.91595">
        <ele>1557.95</ele>
        <time>2013-02-17T09:47:10Z</time>
      </trkpt>
      <trkpt lat="45.40942" lon="5.91578">
        <ele>1554.11</ele>
        <time>2013-02-17T09:47:23Z</time>
      </trkpt>
      <trkpt lat="45.4094" lon="5.91574">
        <ele>1554.11</ele>
        <time>2013-02-17T09:47:24Z</time>
      </trkpt>
      <trkpt lat="45.40935" lon="5.91569">
        <ele>1550.74</ele>
        <time>2013-02-17T09:47:27Z</time>
      </trkpt>
      <trkpt lat="45.40927" lon="5.91567">
        <ele>1547.86</ele>
        <time>2013-02-17T09:47:32Z</time>
      </trkpt>
      <trkpt lat="45.40919" lon="5.91565">
        <ele>1544.5</ele>
        <time>2013-02-17T09:47:40Z</time>
      </trkpt>
      <trkpt lat="45.40915" lon="5.91562">
        <ele>1543.53</ele>
        <time>2013-02-17T09:47:52Z</time>
      </trkpt>
      <trkpt lat="45.40914" lon="5.91561">
        <ele>1543.53</ele>
        <time>2013-02-17T09:47:54Z</time>
      </trkpt>
      <trkpt lat="45.40902" lon="5.91528">
        <ele>1539.69</ele>
        <time>2013-02-17T09:48:04Z</time>
      </trkpt>
      <trkpt lat="45.40894" lon="5.91509">
        <ele>1537.77</ele>
        <time>2013-02-17T09:48:08Z</time>
      </trkpt>
      <trkpt lat="45.40886" lon="5.91502">
        <ele>1533.92</ele>
        <time>2013-02-17T09:48:12Z</time>
      </trkpt>
      <trkpt lat="45.4087" lon="5.91487">
        <ele>1531.04</ele>
        <time>2013-02-17T09:48:23Z</time>
      </trkpt>
      <trkpt lat="45.40853" lon="5.91472">
        <ele>1528.15</ele>
        <time>2013-02-17T09:48:34Z</time>
      </trkpt>
      <trkpt lat="45.40843" lon="5.91463">
        <ele>1527.19</ele>
        <time>2013-02-17T09:48:45Z</time>
      </trkpt>
      <trkpt lat="45.40834" lon="5.91455">
        <ele>1525.75</ele>
        <time>2013-02-17T09:48:59Z</time>
      </trkpt>
      <trkpt lat="45.40834" lon="5.91455">
        <ele>1525.27</ele>
        <time>2013-02-17T09:49:18Z</time>
      </trkpt>
      <trkpt lat="45.40835" lon="5.91455">
        <ele>1525.75</ele>
        <time>2013-02-17T09:50:53Z</time>
      </trkpt>
      <trkpt lat="45.40835" lon="5.91456">
        <ele>1525.75</ele>
        <time>2013-02-17T09:52:02Z</time>
      </trkpt>
      <trkpt lat="45.40837" lon="5.91438">
        <ele>1524.79</ele>
        <time>2013-02-17T09:52:26Z</time>
      </trkpt>
      <trkpt lat="45.40837" lon="5.91432">
        <ele>1524.79</ele>
        <time>2013-02-17T09:52:30Z</time>
      </trkpt>
      <trkpt lat="45.40839" lon="5.91403">
        <ele>1524.31</ele>
        <time>2013-02-17T09:52:48Z</time>
      </trkpt>
      <trkpt lat="45.40838" lon="5.91382">
        <ele>1523.83</ele>
        <time>2013-02-17T09:53:05Z</time>
      </trkpt>
      <trkpt lat="45.40837" lon="5.91367">
        <ele>1525.27</ele>
        <time>2013-02-17T09:53:18Z</time>
      </trkpt>
      <trkpt lat="45.40837" lon="5.91353">
        <ele>1526.23</ele>
        <time>2013-02-17T09:53:31Z</time>
      </trkpt>
      <trkpt lat="45.4084" lon="5.91334">
        <ele>1526.23</ele>
        <time>2013-02-17T09:53:47Z</time>
      </trkpt>
      <trkpt lat="45.4084" lon="5.91331">
        <ele>1526.23</ele>
        <time>2013-02-17T09:53:49Z</time>
      </trkpt>
      <trkpt lat="45.40837" lon="5.9131">
        <ele>1526.71</ele>
        <time>2013-02-17T09:54:09Z</time>
      </trkpt>
      <trkpt lat="45.40834" lon="5.91302">
        <ele>1527.67</ele>
        <time>2013-02-17T09:54:22Z</time>
      </trkpt>
      <trkpt lat="45.40835" lon="5.91301">
        <ele>1527.67</ele>
        <time>2013-02-17T09:54:39Z</time>
      </trkpt>
      <trkpt lat="45.40836" lon="5.91297">
        <ele>1528.15</ele>
        <time>2013-02-17T09:54:42Z</time>
      </trkpt>
      <trkpt lat="45.4084" lon="5.91285">
        <ele>1530.56</ele>
        <time>2013-02-17T09:54:56Z</time>
      </trkpt>
      <trkpt lat="45.40841" lon="5.91273">
        <ele>1531.52</ele>
        <time>2013-02-17T09:55:07Z</time>
      </trkpt>
      <trkpt lat="45.40842" lon="5.9127">
        <ele>1532.48</ele>
        <time>2013-02-17T09:55:10Z</time>
      </trkpt>
      <trkpt lat="45.4085" lon="5.91261">
        <ele>1533.44</ele>
        <time>2013-02-17T09:55:24Z</time>
      </trkpt>
      <trkpt lat="45.40853" lon="5.91251">
        <ele>1535.84</ele>
        <time>2013-02-17T09:55:39Z</time>
      </trkpt>
      <trkpt lat="45.4085" lon="5.91239">
        <ele>1537.77</ele>
        <time>2013-02-17T09:55:55Z</time>
      </trkpt>
      <trkpt lat="45.40851" lon="5.91232">
        <ele>1539.21</ele>
        <time>2013-02-17T09:56:09Z</time>
      </trkpt>
      <trkpt lat="45.40857" lon="5.91234">
        <ele>1540.65</ele>
        <time>2013-02-17T09:56:25Z</time>
      </trkpt>
      <trkpt lat="45.40863" lon="5.91235">
        <ele>1543.05</ele>
        <time>2013-02-17T09:56:37Z</time>
      </trkpt>
      <trkpt lat="45.40867" lon="5.91237">
        <ele>1544.98</ele>
        <time>2013-02-17T09:56:49Z</time>
      </trkpt>
      <trkpt lat="45.40867" lon="5.91234">
        <ele>1545.94</ele>
        <time>2013-02-17T09:57:02Z</time>
      </trkpt>
      <trkpt lat="45.40868" lon="5.91231">
        <ele>1547.38</ele>
        <time>2013-02-17T09:57:12Z</time>
      </trkpt>
      <trkpt lat="45.40868" lon="5.91232">
        <ele>1547.38</ele>
        <time>2013-02-17T09:57:13Z</time>
      </trkpt>
      <trkpt lat="45.4087" lon="5.91229">
        <ele>1547.86</ele>
        <time>2013-02-17T09:57:15Z</time>
      </trkpt>
      <trkpt lat="45.40871" lon="5.91228">
        <ele>1549.78</ele>
        <time>2013-02-17T09:57:28Z</time>
      </trkpt>
      <trkpt lat="45.40867" lon="5.91224">
        <ele>1551.71</ele>
        <time>2013-02-17T09:57:42Z</time>
      </trkpt>
      <trkpt lat="45.40867" lon="5.91219">
        <ele>1553.15</ele>
        <time>2013-02-17T09:57:57Z</time>
      </trkpt>
      <trkpt lat="45.40867" lon="5.91217">
        <ele>1553.63</ele>
        <time>2013-02-17T09:58:28Z</time>
      </trkpt>
      <trkpt lat="45.40866" lon="5.91216">
        <ele>1553.15</ele>
        <time>2013-02-17T09:58:47Z</time>
      </trkpt>
      <trkpt lat="45.40866" lon="5.91212">
        <ele>1553.63</ele>
        <time>2013-02-17T09:58:50Z</time>
      </trkpt>
      <trkpt lat="45.40868" lon="5.91204">
        <ele>1555.55</ele>
        <time>2013-02-17T09:59:04Z</time>
      </trkpt>
      <trkpt lat="45.40871" lon="5.91199">
        <ele>1556.51</ele>
        <time>2013-02-17T09:59:17Z</time>
      </trkpt>
      <trkpt lat="45.40872" lon="5.91202">
        <ele>1557.47</ele>
        <time>2013-02-17T09:59:21Z</time>
      </trkpt>
      <trkpt lat="45.40875" lon="5.91198">
        <ele>1558.43</ele>
        <time>2013-02-17T09:59:27Z</time>
      </trkpt>
      <trkpt lat="45.4088" lon="5.91201">
        <ele>1560.84</ele>
        <time>2013-02-17T09:59:39Z</time>
      </trkpt>
      <trkpt lat="45.40884" lon="5.91204">
        <ele>1563.72</ele>
        <time>2013-02-17T09:59:51Z</time>
      </trkpt>
      <trkpt lat="45.40885" lon="5.91205">
        <ele>1564.68</ele>
        <time>2013-02-17T10:00:00Z</time>
      </trkpt>
      <trkpt lat="45.40886" lon="5.91199">
        <ele>1564.68</ele>
        <time>2013-02-17T10:00:10Z</time>
      </trkpt>
      <trkpt lat="45.40885" lon="5.91192">
        <ele>1567.09</ele>
        <time>2013-02-17T10:00:24Z</time>
      </trkpt>
      <trkpt lat="45.40883" lon="5.91189">
        <ele>1567.57</ele>
        <time>2013-02-17T10:00:30Z</time>
      </trkpt>
      <trkpt lat="45.40881" lon="5.91179">
        <ele>1568.53</ele>
        <time>2013-02-17T10:00:41Z</time>
      </trkpt>
      <trkpt lat="45.40881" lon="5.91174">
        <ele>1569.97</ele>
        <time>2013-02-17T10:00:50Z</time>
      </trkpt>
      <trkpt lat="45.40883" lon="5.91168">
        <ele>1571.41</ele>
        <time>2013-02-17T10:00:58Z</time>
      </trkpt>
      <trkpt lat="45.40884" lon="5.91163">
        <ele>1572.85</ele>
        <time>2013-02-17T10:01:04Z</time>
      </trkpt>
      <trkpt lat="45.40885" lon="5.9116">
        <ele>1574.3</ele>
        <time>2013-02-17T10:01:16Z</time>
      </trkpt>
      <trkpt lat="45.40885" lon="5.91155">
        <ele>1575.74</ele>
        <time>2013-02-17T10:01:31Z</time>
      </trkpt>
      <trkpt lat="45.40881" lon="5.91148">
        <ele>1576.22</ele>
        <time>2013-02-17T10:02:11Z</time>
      </trkpt>
      <trkpt lat="45.4088" lon="5.91137">
        <ele>1578.14</ele>
        <time>2013-02-17T10:02:23Z</time>
      </trkpt>
      <trkpt lat="45.40879" lon="5.91131">
        <ele>1580.06</ele>
        <time>2013-02-17T10:02:32Z</time>
      </trkpt>
      <trkpt lat="45.4088" lon="5.91131">
        <ele>1580.06</ele>
        <time>2013-02-17T10:02:46Z</time>
      </trkpt>
      <trkpt lat="45.40881" lon="5.91134">
        <ele>1581.03</ele>
        <time>2013-02-17T10:02:57Z</time>
      </trkpt>
      <trkpt lat="45.40883" lon="5.91134">
        <ele>1581.51</ele>
        <time>2013-02-17T10:04:23Z</time>
      </trkpt>
      <trkpt lat="45.40887" lon="5.91142">
        <ele>1581.51</ele>
        <time>2013-02-17T10:05:55Z</time>
      </trkpt>
      <trkpt lat="45.4089" lon="5.91145">
        <ele>1582.47</ele>
        <time>2013-02-17T10:05:59Z</time>
      </trkpt>
      <trkpt lat="45.409" lon="5.91154">
        <ele>1585.83</ele>
        <time>2013-02-17T10:06:14Z</time>
      </trkpt>
      <trkpt lat="45.40906" lon="5.9116">
        <ele>1588.72</ele>
        <time>2013-02-17T10:06:26Z</time>
      </trkpt>
      <trkpt lat="45.40916" lon="5.91168">
        <ele>1592.08</ele>
        <time>2013-02-17T10:06:42Z</time>
      </trkpt>
      <trkpt lat="45.40922" lon="5.91174">
        <ele>1594.96</ele>
        <time>2013-02-17T10:06:55Z</time>
      </trkpt>
      <trkpt lat="45.40929" lon="5.91177">
        <ele>1597.85</ele>
        <time>2013-02-17T10:07:07Z</time>
      </trkpt>
      <trkpt lat="45.40932" lon="5.9118">
        <ele>1599.77</ele>
        <time>2013-02-17T10:07:18Z</time>
      </trkpt>
      <trkpt lat="45.40936" lon="5.91181">
        <ele>1601.69</ele>
        <time>2013-02-17T10:07:33Z</time>
      </trkpt>
      <trkpt lat="45.40938" lon="5.9119">
        <ele>1601.69</ele>
        <time>2013-02-17T10:08:23Z</time>
      </trkpt>
      <trkpt lat="45.40942" lon="5.91188">
        <ele>1601.21</ele>
        <time>2013-02-17T10:08:51Z</time>
      </trkpt>
      <trkpt lat="45.40941" lon="5.91198">
        <ele>1602.17</ele>
        <time>2013-02-17T10:09:11Z</time>
      </trkpt>
      <trkpt lat="45.40939" lon="5.91198">
        <ele>1602.17</ele>
        <time>2013-02-17T10:09:35Z</time>
      </trkpt>
      <trkpt lat="45.40942" lon="5.91197">
        <ele>1602.17</ele>
        <time>2013-02-17T10:09:55Z</time>
      </trkpt>
      <trkpt lat="45.40949" lon="5.91199">
        <ele>1601.69</ele>
        <time>2013-02-17T10:10:20Z</time>
      </trkpt>
      <trkpt lat="45.40954" lon="5.912">
        <ele>1602.17</ele>
        <time>2013-02-17T10:10:58Z</time>
      </trkpt>
      <trkpt lat="45.40956" lon="5.91203">
        <ele>1602.17</ele>
        <time>2013-02-17T10:11:17Z</time>
      </trkpt>
      <trkpt lat="45.40971" lon="5.91193">
        <ele>1601.21</ele>
        <time>2013-02-17T10:11:38Z</time>
      </trkpt>
      <trkpt lat="45.40974" lon="5.9119">
        <ele>1602.17</ele>
        <time>2013-02-17T10:11:46Z</time>
      </trkpt>
      <trkpt lat="45.40972" lon="5.91192">
        <ele>1601.69</ele>
        <time>2013-02-17T10:11:59Z</time>
      </trkpt>
      <trkpt lat="45.40974" lon="5.91191">
        <ele>1601.21</ele>
        <time>2013-02-17T10:12:05Z</time>
      </trkpt>
      <trkpt lat="45.40961" lon="5.91202">
        <ele>1602.66</ele>
        <time>2013-02-17T10:12:19Z</time>
      </trkpt>
      <trkpt lat="45.40966" lon="5.91211">
        <ele>1603.62</ele>
        <time>2013-02-17T10:12:31Z</time>
      </trkpt>
      <trkpt lat="45.40971" lon="5.9122">
        <ele>1603.62</ele>
        <time>2013-02-17T10:12:39Z</time>
      </trkpt>
      <trkpt lat="45.40973" lon="5.91222">
        <ele>1604.1</ele>
        <time>2013-02-17T10:12:41Z</time>
      </trkpt>
      <trkpt lat="45.40974" lon="5.91232">
        <ele>1606.98</ele>
        <time>2013-02-17T10:12:54Z</time>
      </trkpt>
      <trkpt lat="45.40971" lon="5.91232">
        <ele>1607.46</ele>
        <time>2013-02-17T10:13:06Z</time>
      </trkpt>
      <trkpt lat="45.40971" lon="5.91232">
        <ele>1608.9</ele>
        <time>2013-02-17T10:13:21Z</time>
      </trkpt>
      <trkpt lat="45.40974" lon="5.91235">
        <ele>1609.86</ele>
        <time>2013-02-17T10:13:33Z</time>
      </trkpt>
      <trkpt lat="45.40975" lon="5.91243">
        <ele>1611.79</ele>
        <time>2013-02-17T10:13:44Z</time>
      </trkpt>
      <trkpt lat="45.40976" lon="5.91249">
        <ele>1614.19</ele>
        <time>2013-02-17T10:13:55Z</time>
      </trkpt>
      <trkpt lat="45.40977" lon="5.91251">
        <ele>1615.63</ele>
        <time>2013-02-17T10:14:10Z</time>
      </trkpt>
      <trkpt lat="45.40978" lon="5.9125">
        <ele>1617.07</ele>
        <time>2013-02-17T10:14:21Z</time>
      </trkpt>
      <trkpt lat="45.40978" lon="5.91251">
        <ele>1617.56</ele>
        <time>2013-02-17T10:15:43Z</time>
      </trkpt>
      <trkpt lat="45.40979" lon="5.91251">
        <ele>1617.56</ele>
        <time>2013-02-17T10:15:50Z</time>
      </trkpt>
      <trkpt lat="45.40984" lon="5.91239">
        <ele>1619.96</ele>
        <time>2013-02-17T10:16:02Z</time>
      </trkpt>
      <trkpt lat="45.40988" lon="5.91227">
        <ele>1621.88</ele>
        <time>2013-02-17T10:16:15Z</time>
      </trkpt>
      <trkpt lat="45.4099" lon="5.91214">
        <ele>1624.77</ele>
        <time>2013-02-17T10:16:26Z</time>
      </trkpt>
      <trkpt lat="45.40987" lon="5.91201">
        <ele>1627.65</ele>
        <time>2013-02-17T10:16:38Z</time>
      </trkpt>
      <trkpt lat="45.40987" lon="5.91197">
        <ele>1629.09</ele>
        <time>2013-02-17T10:16:50Z</time>
      </trkpt>
      <trkpt lat="45.40994" lon="5.91197">
        <ele>1631.01</ele>
        <time>2013-02-17T10:17:02Z</time>
      </trkpt>
      <trkpt lat="45.40994" lon="5.91194">
        <ele>1632.46</ele>
        <time>2013-02-17T10:17:15Z</time>
      </trkpt>
      <trkpt lat="45.40996" lon="5.9119">
        <ele>1634.86</ele>
        <time>2013-02-17T10:17:25Z</time>
      </trkpt>
      <trkpt lat="45.41002" lon="5.91187">
        <ele>1637.26</ele>
        <time>2013-02-17T10:17:35Z</time>
      </trkpt>
      <trkpt lat="45.41006" lon="5.91184">
        <ele>1640.15</ele>
        <time>2013-02-17T10:17:47Z</time>
      </trkpt>
      <trkpt lat="45.41007" lon="5.91181">
        <ele>1641.59</ele>
        <time>2013-02-17T10:17:57Z</time>
      </trkpt>
      <trkpt lat="45.41008" lon="5.91179">
        <ele>1642.07</ele>
        <time>2013-02-17T10:18:33Z</time>
      </trkpt>
      <trkpt lat="45.41012" lon="5.91172">
        <ele>1643.51</ele>
        <time>2013-02-17T10:18:44Z</time>
      </trkpt>
      <trkpt lat="45.41016" lon="5.9116">
        <ele>1646.88</ele>
        <time>2013-02-17T10:18:55Z</time>
      </trkpt>
      <trkpt lat="45.41019" lon="5.91149">
        <ele>1649.76</ele>
        <time>2013-02-17T10:19:09Z</time>
      </trkpt>
      <trkpt lat="45.41019" lon="5.91145">
        <ele>1651.2</ele>
        <time>2013-02-17T10:19:14Z</time>
      </trkpt>
      <trkpt lat="45.41024" lon="5.91135">
        <ele>1653.6</ele>
        <time>2013-02-17T10:19:27Z</time>
      </trkpt>
      <trkpt lat="45.41032" lon="5.91117">
        <ele>1653.12</ele>
        <time>2013-02-17T10:19:39Z</time>
      </trkpt>
      <trkpt lat="45.41036" lon="5.91101">
        <ele>1650.72</ele>
        <time>2013-02-17T10:19:48Z</time>
      </trkpt>
      <trkpt lat="45.4104" lon="5.91086">
        <ele>1652.16</ele>
        <time>2013-02-17T10:20:04Z</time>
      </trkpt>
      <trkpt lat="45.41044" lon="5.91069">
        <ele>1652.16</ele>
        <time>2013-02-17T10:20:16Z</time>
      </trkpt>
      <trkpt lat="45.41046" lon="5.91049">
        <ele>1653.6</ele>
        <time>2013-02-17T10:20:32Z</time>
      </trkpt>
      <trkpt lat="45.41047" lon="5.91043">
        <ele>1656.01</ele>
        <time>2013-02-17T10:20:44Z</time>
      </trkpt>
      <trkpt lat="45.41049" lon="5.9104">
        <ele>1657.93</ele>
        <time>2013-02-17T10:20:58Z</time>
      </trkpt>
      <trkpt lat="45.41052" lon="5.91033">
        <ele>1659.37</ele>
        <time>2013-02-17T10:21:11Z</time>
      </trkpt>
      <trkpt lat="45.4106" lon="5.91017">
        <ele>1659.37</ele>
        <time>2013-02-17T10:21:23Z</time>
      </trkpt>
      <trkpt lat="45.41066" lon="5.91006">
        <ele>1657.45</ele>
        <time>2013-02-17T10:21:33Z</time>
      </trkpt>
      <trkpt lat="45.41073" lon="5.90993">
        <ele>1657.45</ele>
        <time>2013-02-17T10:21:44Z</time>
      </trkpt>
      <trkpt lat="45.4108" lon="5.90984">
        <ele>1657.93</ele>
        <time>2013-02-17T10:21:54Z</time>
      </trkpt>
      <trkpt lat="45.41087" lon="5.90977">
        <ele>1657.45</ele>
        <time>2013-02-17T10:22:02Z</time>
      </trkpt>
      <trkpt lat="45.41099" lon="5.90975">
        <ele>1656.01</ele>
        <time>2013-02-17T10:22:12Z</time>
      </trkpt>
      <trkpt lat="45.41111" lon="5.90965">
        <ele>1654.57</ele>
        <time>2013-02-17T10:22:24Z</time>
      </trkpt>
      <trkpt lat="45.41111" lon="5.90967">
        <ele>1654.09</ele>
        <time>2013-02-17T10:23:17Z</time>
      </trkpt>
      <trkpt lat="45.41113" lon="5.90961">
        <ele>1655.53</ele>
        <time>2013-02-17T10:25:02Z</time>
      </trkpt>
      <trkpt lat="45.41117" lon="5.90941">
        <ele>1657.93</ele>
        <time>2013-02-17T10:25:18Z</time>
      </trkpt>
      <trkpt lat="45.41117" lon="5.90938">
        <ele>1658.41</ele>
        <time>2013-02-17T10:25:22Z</time>
      </trkpt>
      <trkpt lat="45.41118" lon="5.90931">
        <ele>1658.89</ele>
        <time>2013-02-17T10:25:27Z</time>
      </trkpt>
      <trkpt lat="45.41116" lon="5.90912">
        <ele>1659.37</ele>
        <time>2013-02-17T10:25:39Z</time>
      </trkpt>
      <trkpt lat="45.41116" lon="5.90884">
        <ele>1659.85</ele>
        <time>2013-02-17T10:25:57Z</time>
      </trkpt>
      <trkpt lat="45.41116" lon="5.9088">
        <ele>1660.33</ele>
        <time>2013-02-17T10:25:59Z</time>
      </trkpt>
      <trkpt lat="45.41112" lon="5.90862">
        <ele>1662.26</ele>
        <time>2013-02-17T10:26:15Z</time>
      </trkpt>
      <trkpt lat="45.41112" lon="5.90856">
        <ele>1664.18</ele>
        <time>2013-02-17T10:26:21Z</time>
      </trkpt>
      <trkpt lat="45.4111" lon="5.90846">
        <ele>1666.58</ele>
        <time>2013-02-17T10:26:31Z</time>
      </trkpt>
      <trkpt lat="45.41108" lon="5.90845">
        <ele>1667.54</ele>
        <time>2013-02-17T10:26:38Z</time>
      </trkpt>
      <trkpt lat="45.41108" lon="5.9084">
        <ele>1669.47</ele>
        <time>2013-02-17T10:26:45Z</time>
      </trkpt>
      <trkpt lat="45.41115" lon="5.90835">
        <ele>1669.95</ele>
        <time>2013-02-17T10:26:54Z</time>
      </trkpt>
      <trkpt lat="45.41122" lon="5.90833">
        <ele>1669.47</ele>
        <time>2013-02-17T10:27:02Z</time>
      </trkpt>
      <trkpt lat="45.41131" lon="5.90823">
        <ele>1668.99</ele>
        <time>2013-02-17T10:27:11Z</time>
      </trkpt>
      <trkpt lat="45.41138" lon="5.90809">
        <ele>1669.47</ele>
        <time>2013-02-17T10:27:23Z</time>
      </trkpt>
      <trkpt lat="45.41141" lon="5.90796">
        <ele>1669.95</ele>
        <time>2013-02-17T10:27:34Z</time>
      </trkpt>
      <trkpt lat="45.41142" lon="5.90793">
        <ele>1670.43</ele>
        <time>2013-02-17T10:28:05Z</time>
      </trkpt>
      <trkpt lat="45.41153" lon="5.90772">
        <ele>1671.39</ele>
        <time>2013-02-17T10:28:22Z</time>
      </trkpt>
      <trkpt lat="45.41167" lon="5.90757">
        <ele>1673.31</ele>
        <time>2013-02-17T10:28:39Z</time>
      </trkpt>
      <trkpt lat="45.41183" lon="5.90741">
        <ele>1674.75</ele>
        <time>2013-02-17T10:28:58Z</time>
      </trkpt>
      <trkpt lat="45.41203" lon="5.90723">
        <ele>1675.23</ele>
        <time>2013-02-17T10:29:19Z</time>
      </trkpt>
      <trkpt lat="45.41217" lon="5.90711">
        <ele>1676.68</ele>
        <time>2013-02-17T10:29:35Z</time>
      </trkpt>
      <trkpt lat="45.41231" lon="5.90701">
        <ele>1677.64</ele>
        <time>2013-02-17T10:29:51Z</time>
      </trkpt>
      <trkpt lat="45.41248" lon="5.9069">
        <ele>1679.56</ele>
        <time>2013-02-17T10:30:10Z</time>
      </trkpt>
      <trkpt lat="45.41262" lon="5.90683">
        <ele>1680.52</ele>
        <time>2013-02-17T10:30:25Z</time>
      </trkpt>
      <trkpt lat="45.41278" lon="5.90671">
        <ele>1681.48</ele>
        <time>2013-02-17T10:30:43Z</time>
      </trkpt>
      <trkpt lat="45.41286" lon="5.90666">
        <ele>1683.89</ele>
        <time>2013-02-17T10:30:55Z</time>
      </trkpt>
      <trkpt lat="45.41297" lon="5.9066">
        <ele>1685.81</ele>
        <time>2013-02-17T10:31:08Z</time>
      </trkpt>
      <trkpt lat="45.41307" lon="5.90652">
        <ele>1688.21</ele>
        <time>2013-02-17T10:31:22Z</time>
      </trkpt>
      <trkpt lat="45.41316" lon="5.90645">
        <ele>1691.1</ele>
        <time>2013-02-17T10:31:35Z</time>
      </trkpt>
      <trkpt lat="45.41327" lon="5.90639">
        <ele>1692.54</ele>
        <time>2013-02-17T10:31:47Z</time>
      </trkpt>
      <trkpt lat="45.41341" lon="5.90637">
        <ele>1694.46</ele>
        <time>2013-02-17T10:32:03Z</time>
      </trkpt>
      <trkpt lat="45.4135" lon="5.90637">
        <ele>1695.42</ele>
        <time>2013-02-17T10:32:14Z</time>
      </trkpt>
      <trkpt lat="45.41355" lon="5.90636">
        <ele>1697.34</ele>
        <time>2013-02-17T10:32:26Z</time>
      </trkpt>
      <trkpt lat="45.41363" lon="5.90633">
        <ele>1699.27</ele>
        <time>2013-02-17T10:32:38Z</time>
      </trkpt>
      <trkpt lat="45.41363" lon="5.90633">
        <ele>1699.27</ele>
        <time>2013-02-17T10:32:39Z</time>
      </trkpt>
      <trkpt lat="45.41369" lon="5.90633">
        <ele>1700.23</ele>
        <time>2013-02-17T10:32:46Z</time>
      </trkpt>
      <trkpt lat="45.41374" lon="5.90634">
        <ele>1700.71</ele>
        <time>2013-02-17T10:32:56Z</time>
      </trkpt>
      <trkpt lat="45.4138" lon="5.90631">
        <ele>1702.15</ele>
        <time>2013-02-17T10:33:07Z</time>
      </trkpt>
      <trkpt lat="45.41385" lon="5.90634">
        <ele>1703.59</ele>
        <time>2013-02-17T10:33:20Z</time>
      </trkpt>
      <trkpt lat="45.41387" lon="5.90633">
        <ele>1704.55</ele>
        <time>2013-02-17T10:33:23Z</time>
      </trkpt>
      <trkpt lat="45.41393" lon="5.90632">
        <ele>1706</ele>
        <time>2013-02-17T10:33:32Z</time>
      </trkpt>
      <trkpt lat="45.41401" lon="5.90631">
        <ele>1706.96</ele>
        <time>2013-02-17T10:33:44Z</time>
      </trkpt>
      <trkpt lat="45.41403" lon="5.90632">
        <ele>1707.44</ele>
        <time>2013-02-17T10:33:47Z</time>
      </trkpt>
      <trkpt lat="45.41405" lon="5.90632">
        <ele>1707.92</ele>
        <time>2013-02-17T10:33:50Z</time>
      </trkpt>
      <trkpt lat="45.41414" lon="5.90634">
        <ele>1709.36</ele>
        <time>2013-02-17T10:34:01Z</time>
      </trkpt>
      <trkpt lat="45.41421" lon="5.90633">
        <ele>1711.28</ele>
        <time>2013-02-17T10:34:17Z</time>
      </trkpt>
      <trkpt lat="45.41428" lon="5.90631">
        <ele>1713.21</ele>
        <time>2013-02-17T10:34:32Z</time>
      </trkpt>
      <trkpt lat="45.41435" lon="5.90633">
        <ele>1714.65</ele>
        <time>2013-02-17T10:34:44Z</time>
      </trkpt>
      <trkpt lat="45.4144" lon="5.90634">
        <ele>1717.05</ele>
        <time>2013-02-17T10:34:57Z</time>
      </trkpt>
      <trkpt lat="45.41445" lon="5.90634">
        <ele>1718.01</ele>
        <time>2013-02-17T10:35:17Z</time>
      </trkpt>
      <trkpt lat="45.41451" lon="5.90635">
        <ele>1718.97</ele>
        <time>2013-02-17T10:35:32Z</time>
      </trkpt>
      <trkpt lat="45.41453" lon="5.90635">
        <ele>1719.46</ele>
        <time>2013-02-17T10:36:03Z</time>
      </trkpt>
      <trkpt lat="45.41455" lon="5.90634">
        <ele>1719.46</ele>
        <time>2013-02-17T10:36:46Z</time>
      </trkpt>
      <trkpt lat="45.41454" lon="5.90634">
        <ele>1719.46</ele>
        <time>2013-02-17T10:37:10Z</time>
      </trkpt>
      <trkpt lat="45.4146" lon="5.90631">
        <ele>1721.38</ele>
        <time>2013-02-17T10:37:43Z</time>
      </trkpt>
      <trkpt lat="45.41467" lon="5.90625">
        <ele>1723.78</ele>
        <time>2013-02-17T10:37:56Z</time>
      </trkpt>
      <trkpt lat="45.41474" lon="5.90621">
        <ele>1726.67</ele>
        <time>2013-02-17T10:38:08Z</time>
      </trkpt>
      <trkpt lat="45.4148" lon="5.90618">
        <ele>1729.07</ele>
        <time>2013-02-17T10:38:21Z</time>
      </trkpt>
      <trkpt lat="45.41487" lon="5.90613">
        <ele>1731.47</ele>
        <time>2013-02-17T10:38:35Z</time>
      </trkpt>
      <trkpt lat="45.41493" lon="5.9061">
        <ele>1733.88</ele>
        <time>2013-02-17T10:38:48Z</time>
      </trkpt>
      <trkpt lat="45.41499" lon="5.90606">
        <ele>1735.8</ele>
        <time>2013-02-17T10:38:59Z</time>
      </trkpt>
      <trkpt lat="45.41499" lon="5.90605">
        <ele>1736.28</ele>
        <time>2013-02-17T10:39:00Z</time>
      </trkpt>
      <trkpt lat="45.41507" lon="5.90599">
        <ele>1738.2</ele>
        <time>2013-02-17T10:39:15Z</time>
      </trkpt>
      <trkpt lat="45.41511" lon="5.90597">
        <ele>1739.64</ele>
        <time>2013-02-17T10:39:32Z</time>
      </trkpt>
      <trkpt lat="45.4152" lon="5.9059">
        <ele>1741.08</ele>
        <time>2013-02-17T10:39:45Z</time>
      </trkpt>
      <trkpt lat="45.41528" lon="5.90587">
        <ele>1742.53</ele>
        <time>2013-02-17T10:39:57Z</time>
      </trkpt>
      <trkpt lat="45.41534" lon="5.90584">
        <ele>1745.41</ele>
        <time>2013-02-17T10:40:10Z</time>
      </trkpt>
      <trkpt lat="45.41541" lon="5.90578">
        <ele>1748.29</ele>
        <time>2013-02-17T10:40:22Z</time>
      </trkpt>
      <trkpt lat="45.41547" lon="5.90575">
        <ele>1751.18</ele>
        <time>2013-02-17T10:40:35Z</time>
      </trkpt>
      <trkpt lat="45.41552" lon="5.90572">
        <ele>1752.62</ele>
        <time>2013-02-17T10:40:58Z</time>
      </trkpt>
      <trkpt lat="45.41559" lon="5.90571">
        <ele>1754.54</ele>
        <time>2013-02-17T10:41:08Z</time>
      </trkpt>
      <trkpt lat="45.41565" lon="5.90571">
        <ele>1756.47</ele>
        <time>2013-02-17T10:41:16Z</time>
      </trkpt>
      <trkpt lat="45.41571" lon="5.90574">
        <ele>1758.39</ele>
        <time>2013-02-17T10:41:26Z</time>
      </trkpt>
      <trkpt lat="45.41575" lon="5.90574">
        <ele>1761.27</ele>
        <time>2013-02-17T10:41:42Z</time>
      </trkpt>
      <trkpt lat="45.41579" lon="5.90578">
        <ele>1762.71</ele>
        <time>2013-02-17T10:41:55Z</time>
      </trkpt>
      <trkpt lat="45.41586" lon="5.90579">
        <ele>1764.64</ele>
        <time>2013-02-17T10:42:06Z</time>
      </trkpt>
      <trkpt lat="45.41593" lon="5.9058">
        <ele>1767.52</ele>
        <time>2013-02-17T10:42:18Z</time>
      </trkpt>
      <trkpt lat="45.41594" lon="5.90579">
        <ele>1769.44</ele>
        <time>2013-02-17T10:42:33Z</time>
      </trkpt>
      <trkpt lat="45.41599" lon="5.90576">
        <ele>1770.89</ele>
        <time>2013-02-17T10:42:50Z</time>
      </trkpt>
      <trkpt lat="45.41606" lon="5.90571">
        <ele>1774.25</ele>
        <time>2013-02-17T10:43:03Z</time>
      </trkpt>
      <trkpt lat="45.41613" lon="5.90567">
        <ele>1777.13</ele>
        <time>2013-02-17T10:43:16Z</time>
      </trkpt>
      <trkpt lat="45.4162" lon="5.90565">
        <ele>1780.02</ele>
        <time>2013-02-17T10:43:28Z</time>
      </trkpt>
      <trkpt lat="45.41628" lon="5.90564">
        <ele>1782.9</ele>
        <time>2013-02-17T10:43:41Z</time>
      </trkpt>
      <trkpt lat="45.41631" lon="5.90562">
        <ele>1784.82</ele>
        <time>2013-02-17T10:44:00Z</time>
      </trkpt>
      <trkpt lat="45.41637" lon="5.90558">
        <ele>1786.27</ele>
        <time>2013-02-17T10:44:11Z</time>
      </trkpt>
      <trkpt lat="45.41639" lon="5.90557">
        <ele>1788.19</ele>
        <time>2013-02-17T10:44:21Z</time>
      </trkpt>
      <trkpt lat="45.4164" lon="5.90549">
        <ele>1790.11</ele>
        <time>2013-02-17T10:44:34Z</time>
      </trkpt>
      <trkpt lat="45.4164" lon="5.9054">
        <ele>1791.55</ele>
        <time>2013-02-17T10:44:48Z</time>
      </trkpt>
      <trkpt lat="45.41638" lon="5.90531">
        <ele>1793</ele>
        <time>2013-02-17T10:44:59Z</time>
      </trkpt>
      <trkpt lat="45.41638" lon="5.90529">
        <ele>1793.48</ele>
        <time>2013-02-17T10:45:01Z</time>
      </trkpt>
      <trkpt lat="45.41636" lon="5.90516">
        <ele>1794.44</ele>
        <time>2013-02-17T10:45:15Z</time>
      </trkpt>
      <trkpt lat="45.41634" lon="5.90498">
        <ele>1794.92</ele>
        <time>2013-02-17T10:45:27Z</time>
      </trkpt>
      <trkpt lat="45.41632" lon="5.90484">
        <ele>1796.36</ele>
        <time>2013-02-17T10:45:41Z</time>
      </trkpt>
      <trkpt lat="45.41632" lon="5.90478">
        <ele>1797.32</ele>
        <time>2013-02-17T10:45:50Z</time>
      </trkpt>
      <trkpt lat="45.41629" lon="5.9047">
        <ele>1797.8</ele>
        <time>2013-02-17T10:46:01Z</time>
      </trkpt>
      <trkpt lat="45.41628" lon="5.90467">
        <ele>1797.8</ele>
        <time>2013-02-17T10:46:09Z</time>
      </trkpt>
      <trkpt lat="45.41636" lon="5.90455">
        <ele>1796.36</ele>
        <time>2013-02-17T10:46:22Z</time>
      </trkpt>
      <trkpt lat="45.41637" lon="5.90446">
        <ele>1798.76</ele>
        <time>2013-02-17T10:46:34Z</time>
      </trkpt>
      <trkpt lat="45.41638" lon="5.90442">
        <ele>1799.24</ele>
        <time>2013-02-17T10:46:40Z</time>
      </trkpt>
      <trkpt lat="45.41643" lon="5.90433">
        <ele>1801.17</ele>
        <time>2013-02-17T10:46:53Z</time>
      </trkpt>
      <trkpt lat="45.41644" lon="5.9043">
        <ele>1801.65</ele>
        <time>2013-02-17T10:47:24Z</time>
      </trkpt>
      <trkpt lat="45.41645" lon="5.90425">
        <ele>1802.61</ele>
        <time>2013-02-17T10:47:30Z</time>
      </trkpt>
      <trkpt lat="45.41646" lon="5.90411">
        <ele>1805.01</ele>
        <time>2013-02-17T10:47:46Z</time>
      </trkpt>
      <trkpt lat="45.41643" lon="5.90402">
        <ele>1806.94</ele>
        <time>2013-02-17T10:47:58Z</time>
      </trkpt>
      <trkpt lat="45.41641" lon="5.90392">
        <ele>1808.86</ele>
        <time>2013-02-17T10:48:10Z</time>
      </trkpt>
      <trkpt lat="45.4164" lon="5.90388">
        <ele>1809.82</ele>
        <time>2013-02-17T10:48:23Z</time>
      </trkpt>
      <trkpt lat="45.41639" lon="5.90383">
        <ele>1811.26</ele>
        <time>2013-02-17T10:48:52Z</time>
      </trkpt>
      <trkpt lat="45.41638" lon="5.90372">
        <ele>1812.7</ele>
        <time>2013-02-17T10:49:12Z</time>
      </trkpt>
      <trkpt lat="45.41636" lon="5.90362">
        <ele>1815.11</ele>
        <time>2013-02-17T10:49:25Z</time>
      </trkpt>
      <trkpt lat="45.41637" lon="5.90353">
        <ele>1817.51</ele>
        <time>2013-02-17T10:49:37Z</time>
      </trkpt>
      <trkpt lat="45.41639" lon="5.90346">
        <ele>1819.43</ele>
        <time>2013-02-17T10:49:56Z</time>
      </trkpt>
      <trkpt lat="45.41642" lon="5.90338">
        <ele>1821.35</ele>
        <time>2013-02-17T10:50:08Z</time>
      </trkpt>
      <trkpt lat="45.41647" lon="5.90332">
        <ele>1823.28</ele>
        <time>2013-02-17T10:50:19Z</time>
      </trkpt>
      <trkpt lat="45.4165" lon="5.90323">
        <ele>1825.2</ele>
        <time>2013-02-17T10:50:31Z</time>
      </trkpt>
      <trkpt lat="45.41652" lon="5.90315">
        <ele>1826.64</ele>
        <time>2013-02-17T10:50:42Z</time>
      </trkpt>
      <trkpt lat="45.41652" lon="5.90307">
        <ele>1828.56</ele>
        <time>2013-02-17T10:50:53Z</time>
      </trkpt>
      <trkpt lat="45.41654" lon="5.90298">
        <ele>1830.97</ele>
        <time>2013-02-17T10:51:07Z</time>
      </trkpt>
      <trkpt lat="45.41658" lon="5.90292">
        <ele>1832.89</ele>
        <time>2013-02-17T10:51:19Z</time>
      </trkpt>
      <trkpt lat="45.41659" lon="5.90289">
        <ele>1833.85</ele>
        <time>2013-02-17T10:51:44Z</time>
      </trkpt>
      <trkpt lat="45.41663" lon="5.90283">
        <ele>1835.77</ele>
        <time>2013-02-17T10:51:56Z</time>
      </trkpt>
      <trkpt lat="45.41668" lon="5.90275">
        <ele>1837.7</ele>
        <time>2013-02-17T10:52:08Z</time>
      </trkpt>
      <trkpt lat="45.41671" lon="5.90267">
        <ele>1839.62</ele>
        <time>2013-02-17T10:52:20Z</time>
      </trkpt>
      <trkpt lat="45.4167" lon="5.9026">
        <ele>1842.5</ele>
        <time>2013-02-17T10:52:32Z</time>
      </trkpt>
      <trkpt lat="45.41667" lon="5.90254">
        <ele>1844.43</ele>
        <time>2013-02-17T10:52:42Z</time>
      </trkpt>
      <trkpt lat="45.41666" lon="5.9025">
        <ele>1846.35</ele>
        <time>2013-02-17T10:53:04Z</time>
      </trkpt>
      <trkpt lat="45.41665" lon="5.90242">
        <ele>1848.27</ele>
        <time>2013-02-17T10:53:14Z</time>
      </trkpt>
      <trkpt lat="45.41666" lon="5.90233">
        <ele>1850.68</ele>
        <time>2013-02-17T10:53:26Z</time>
      </trkpt>
      <trkpt lat="45.4167" lon="5.90225">
        <ele>1853.56</ele>
        <time>2013-02-17T10:53:38Z</time>
      </trkpt>
      <trkpt lat="45.41673" lon="5.9022">
        <ele>1855</ele>
        <time>2013-02-17T10:54:01Z</time>
      </trkpt>
      <trkpt lat="45.41677" lon="5.90213">
        <ele>1857.4</ele>
        <time>2013-02-17T10:54:13Z</time>
      </trkpt>
      <trkpt lat="45.41679" lon="5.90205">
        <ele>1860.29</ele>
        <time>2013-02-17T10:54:26Z</time>
      </trkpt>
      <trkpt lat="45.41679" lon="5.90196">
        <ele>1862.21</ele>
        <time>2013-02-17T10:54:37Z</time>
      </trkpt>
      <trkpt lat="45.4168" lon="5.90187">
        <ele>1864.13</ele>
        <time>2013-02-17T10:54:49Z</time>
      </trkpt>
      <trkpt lat="45.41679" lon="5.90187">
        <ele>1864.61</ele>
        <time>2013-02-17T10:55:23Z</time>
      </trkpt>
      <trkpt lat="45.41682" lon="5.90179">
        <ele>1865.58</ele>
        <time>2013-02-17T10:55:36Z</time>
      </trkpt>
      <trkpt lat="45.41694" lon="5.90176">
        <ele>1863.65</ele>
        <time>2013-02-17T10:55:49Z</time>
      </trkpt>
      <trkpt lat="45.41699" lon="5.90171">
        <ele>1864.61</ele>
        <time>2013-02-17T10:55:58Z</time>
      </trkpt>
      <trkpt lat="45.41707" lon="5.90165">
        <ele>1864.61</ele>
        <time>2013-02-17T10:56:11Z</time>
      </trkpt>
      <trkpt lat="45.41708" lon="5.90165">
        <ele>1864.61</ele>
        <time>2013-02-17T10:56:52Z</time>
      </trkpt>
      <trkpt lat="45.4172" lon="5.90165">
        <ele>1864.13</ele>
        <time>2013-02-17T10:57:07Z</time>
      </trkpt>
      <trkpt lat="45.41736" lon="5.90161">
        <ele>1864.61</ele>
        <time>2013-02-17T10:57:22Z</time>
      </trkpt>
      <trkpt lat="45.41741" lon="5.90159">
        <ele>1865.09</ele>
        <time>2013-02-17T10:57:29Z</time>
      </trkpt>
      <trkpt lat="45.41743" lon="5.90159">
        <ele>1865.58</ele>
        <time>2013-02-17T10:57:32Z</time>
      </trkpt>
      <trkpt lat="45.41763" lon="5.90164">
        <ele>1865.58</ele>
        <time>2013-02-17T10:57:52Z</time>
      </trkpt>
      <trkpt lat="45.41778" lon="5.90159">
        <ele>1865.09</ele>
        <time>2013-02-17T10:58:07Z</time>
      </trkpt>
      <trkpt lat="45.41781" lon="5.90156">
        <ele>1865.09</ele>
        <time>2013-02-17T10:58:11Z</time>
      </trkpt>
      <trkpt lat="45.4179" lon="5.90144">
        <ele>1867.02</ele>
        <time>2013-02-17T10:58:26Z</time>
      </trkpt>
      <trkpt lat="45.41796" lon="5.90137">
        <ele>1868.94</ele>
        <time>2013-02-17T10:58:38Z</time>
      </trkpt>
      <trkpt lat="45.41803" lon="5.90127">
        <ele>1870.86</ele>
        <time>2013-02-17T10:58:52Z</time>
      </trkpt>
      <trkpt lat="45.41812" lon="5.90118">
        <ele>1871.82</ele>
        <time>2013-02-17T10:59:06Z</time>
      </trkpt>
      <trkpt lat="45.41822" lon="5.9011">
        <ele>1871.82</ele>
        <time>2013-02-17T10:59:19Z</time>
      </trkpt>
      <trkpt lat="45.41826" lon="5.90104">
        <ele>1872.3</ele>
        <time>2013-02-17T10:59:33Z</time>
      </trkpt>
      <trkpt lat="45.41818" lon="5.90106">
        <ele>1873.75</ele>
        <time>2013-02-17T10:59:45Z</time>
      </trkpt>
      <trkpt lat="45.4181" lon="5.90108">
        <ele>1875.19</ele>
        <time>2013-02-17T10:59:58Z</time>
      </trkpt>
      <trkpt lat="45.41808" lon="5.90109">
        <ele>1875.19</ele>
        <time>2013-02-17T11:00:20Z</time>
      </trkpt>
      <trkpt lat="45.41808" lon="5.90109">
        <ele>1874.71</ele>
        <time>2013-02-17T11:01:04Z</time>
      </trkpt>
      <trkpt lat="45.41807" lon="5.90108">
        <ele>1874.71</ele>
        <time>2013-02-17T11:01:37Z</time>
      </trkpt>
      <trkpt lat="45.41807" lon="5.90108">
        <ele>1874.71</ele>
        <time>2013-02-17T11:01:57Z</time>
      </trkpt>
      <trkpt lat="45.41807" lon="5.90108">
        <ele>1874.71</ele>
        <time>2013-02-17T11:02:27Z</time>
      </trkpt>
      <trkpt lat="45.41821" lon="5.90104">
        <ele>1874.23</ele>
        <time>2013-02-17T11:02:42Z</time>
      </trkpt>
      <trkpt lat="45.41845" lon="5.90114">
        <ele>1871.82</ele>
        <time>2013-02-17T11:02:50Z</time>
      </trkpt>
      <trkpt lat="45.41846" lon="5.90116">
        <ele>1870.86</ele>
        <time>2013-02-17T11:03:05Z</time>
      </trkpt>
      <trkpt lat="45.41859" lon="5.9014">
        <ele>1868.46</ele>
        <time>2013-02-17T11:03:20Z</time>
      </trkpt>
      <trkpt lat="45.4187" lon="5.90148">
        <ele>1867.5</ele>
        <time>2013-02-17T11:03:22Z</time>
      </trkpt>
      <trkpt lat="45.41882" lon="5.90154">
        <ele>1864.13</ele>
        <time>2013-02-17T11:03:25Z</time>
      </trkpt>
      <trkpt lat="45.41893" lon="5.90161">
        <ele>1862.21</ele>
        <time>2013-02-17T11:03:29Z</time>
      </trkpt>
      <trkpt lat="45.41901" lon="5.90166">
        <ele>1862.21</ele>
        <time>2013-02-17T11:03:39Z</time>
      </trkpt>
      <trkpt lat="45.41911" lon="5.90173">
        <ele>1862.21</ele>
        <time>2013-02-17T11:03:57Z</time>
      </trkpt>
      <trkpt lat="45.4192" lon="5.90178">
        <ele>1862.69</ele>
        <time>2013-02-17T11:04:11Z</time>
      </trkpt>
      <trkpt lat="45.41929" lon="5.90184">
        <ele>1862.21</ele>
        <time>2013-02-17T11:04:26Z</time>
      </trkpt>
      <trkpt lat="45.41937" lon="5.90189">
        <ele>1862.21</ele>
        <time>2013-02-17T11:04:38Z</time>
      </trkpt>
      <trkpt lat="45.41941" lon="5.90193">
        <ele>1862.69</ele>
        <time>2013-02-17T11:04:49Z</time>
      </trkpt>
      <trkpt lat="45.41957" lon="5.90204">
        <ele>1861.25</ele>
        <time>2013-02-17T11:04:59Z</time>
      </trkpt>
      <trkpt lat="45.41966" lon="5.90209">
        <ele>1859.33</ele>
        <time>2013-02-17T11:05:31Z</time>
      </trkpt>
      <trkpt lat="45.41969" lon="5.90212">
        <ele>1858.37</ele>
        <time>2013-02-17T11:05:50Z</time>
      </trkpt>
      <trkpt lat="45.41969" lon="5.90212">
        <ele>1858.37</ele>
        <time>2013-02-17T11:06:24Z</time>
      </trkpt>
      <trkpt lat="45.41969" lon="5.90212">
        <ele>1858.37</ele>
        <time>2013-02-17T11:06:56Z</time>
      </trkpt>
      <trkpt lat="45.4197" lon="5.90215">
        <ele>1858.37</ele>
        <time>2013-02-17T11:07:31Z</time>
      </trkpt>
      <trkpt lat="45.41972" lon="5.90215">
        <ele>1858.37</ele>
        <time>2013-02-17T11:07:52Z</time>
      </trkpt>
      <trkpt lat="45.41972" lon="5.90215">
        <ele>1858.37</ele>
        <time>2013-02-17T11:08:41Z</time>
      </trkpt>
      <trkpt lat="45.41972" lon="5.90215">
        <ele>1858.85</ele>
        <time>2013-02-17T11:09:01Z</time>
      </trkpt>
      <trkpt lat="45.41973" lon="5.90215">
        <ele>1858.85</ele>
        <time>2013-02-17T11:09:12Z</time>
      </trkpt>
      <trkpt lat="45.41973" lon="5.90215">
        <ele>1858.37</ele>
        <time>2013-02-17T11:09:28Z</time>
      </trkpt>
      <trkpt lat="45.41973" lon="5.90216">
        <ele>1858.37</ele>
        <time>2013-02-17T11:09:42Z</time>
      </trkpt>
      <trkpt lat="45.41972" lon="5.90217">
        <ele>1858.37</ele>
        <time>2013-02-17T11:10:06Z</time>
      </trkpt>
      <trkpt lat="45.41972" lon="5.90217">
        <ele>1858.37</ele>
        <time>2013-02-17T11:10:23Z</time>
      </trkpt>
      <trkpt lat="45.41972" lon="5.90217">
        <ele>1858.37</ele>
        <time>2013-02-17T11:11:50Z</time>
      </trkpt>
      <trkpt lat="45.41972" lon="5.90218">
        <ele>1859.81</ele>
        <time>2013-02-17T11:14:27Z</time>
      </trkpt>
      <trkpt lat="45.41972" lon="5.90218">
        <ele>1859.81</ele>
        <time>2013-02-17T11:15:16Z</time>
      </trkpt>
      <trkpt lat="45.41972" lon="5.90218">
        <ele>1859.81</ele>
        <time>2013-02-17T11:15:38Z</time>
      </trkpt>
      <trkpt lat="45.41972" lon="5.90217">
        <ele>1860.29</ele>
        <time>2013-02-17T11:16:48Z</time>
      </trkpt>
      <trkpt lat="45.41972" lon="5.90218">
        <ele>1860.29</ele>
        <time>2013-02-17T11:17:33Z</time>
      </trkpt>
      <trkpt lat="45.41973" lon="5.90217">
        <ele>1859.81</ele>
        <time>2013-02-17T11:18:05Z</time>
      </trkpt>
      <trkpt lat="45.41973" lon="5.90216">
        <ele>1858.85</ele>
        <time>2013-02-17T11:20:49Z</time>
      </trkpt>
      <trkpt lat="45.41973" lon="5.90216">
        <ele>1858.85</ele>
        <time>2013-02-17T11:27:56Z</time>
      </trkpt>
      <trkpt lat="45.41973" lon="5.90216">
        <ele>1858.85</ele>
        <time>2013-02-17T11:28:49Z</time>
      </trkpt>
      <trkpt lat="45.41972" lon="5.90216">
        <ele>1858.85</ele>
        <time>2013-02-17T11:29:29Z</time>
      </trkpt>
      <trkpt lat="45.41972" lon="5.90217">
        <ele>1858.37</ele>
        <time>2013-02-17T11:29:58Z</time>
      </trkpt>
      <trkpt lat="45.41971" lon="5.90216">
        <ele>1859.33</ele>
        <time>2013-02-17T11:30:33Z</time>
      </trkpt>
      <trkpt lat="45.4197" lon="5.90216">
        <ele>1858.85</ele>
        <time>2013-02-17T11:31:07Z</time>
      </trkpt>
      <trkpt lat="45.4197" lon="5.90216">
        <ele>1858.37</ele>
        <time>2013-02-17T11:31:26Z</time>
      </trkpt>
      <trkpt lat="45.4197" lon="5.90216">
        <ele>1859.33</ele>
        <time>2013-02-17T11:31:56Z</time>
      </trkpt>
      <trkpt lat="45.41971" lon="5.90216">
        <ele>1858.37</ele>
        <time>2013-02-17T11:32:29Z</time>
      </trkpt>
      <trkpt lat="45.41971" lon="5.90217">
        <ele>1858.85</ele>
        <time>2013-02-17T11:33:16Z</time>
      </trkpt>
      <trkpt lat="45.41971" lon="5.90217">
        <ele>1859.33</ele>
        <time>2013-02-17T11:33:42Z</time>
      </trkpt>
      <trkpt lat="45.41971" lon="5.90217">
        <ele>1859.33</ele>
        <time>2013-02-17T11:34:19Z</time>
      </trkpt>
      <trkpt lat="45.41971" lon="5.90217">
        <ele>1858.85</ele>
        <time>2013-02-17T11:34:34Z</time>
      </trkpt>
      <trkpt lat="45.41971" lon="5.90215">
        <ele>1859.81</ele>
        <time>2013-02-17T11:34:48Z</time>
      </trkpt>
      <trkpt lat="45.41972" lon="5.90212">
        <ele>1857.89</ele>
        <time>2013-02-17T11:35:00Z</time>
      </trkpt>
      <trkpt lat="45.41972" lon="5.90212">
        <ele>1857.4</ele>
        <time>2013-02-17T11:35:02Z</time>
      </trkpt>
      <trkpt lat="45.41969" lon="5.90207">
        <ele>1854.04</ele>
        <time>2013-02-17T11:35:10Z</time>
      </trkpt>
      <trkpt lat="45.41967" lon="5.90205">
        <ele>1851.16</ele>
        <time>2013-02-17T11:35:18Z</time>
      </trkpt>
      <trkpt lat="45.41967" lon="5.90204">
        <ele>1850.19</ele>
        <time>2013-02-17T11:35:23Z</time>
      </trkpt>
      <trkpt lat="45.41968" lon="5.902">
        <ele>1847.31</ele>
        <time>2013-02-17T11:35:36Z</time>
      </trkpt>
      <trkpt lat="45.41968" lon="5.90199">
        <ele>1846.35</ele>
        <time>2013-02-17T11:35:40Z</time>
      </trkpt>
      <trkpt lat="45.41973" lon="5.90192">
        <ele>1842.5</ele>
        <time>2013-02-17T11:35:46Z</time>
      </trkpt>
      <trkpt lat="45.41973" lon="5.90191">
        <ele>1842.02</ele>
        <time>2013-02-17T11:35:48Z</time>
      </trkpt>
      <trkpt lat="45.4197" lon="5.90193">
        <ele>1841.06</ele>
        <time>2013-02-17T11:35:59Z</time>
      </trkpt>
      <trkpt lat="45.41967" lon="5.90191">
        <ele>1839.14</ele>
        <time>2013-02-17T11:36:04Z</time>
      </trkpt>
      <trkpt lat="45.41965" lon="5.90184">
        <ele>1835.77</ele>
        <time>2013-02-17T11:36:08Z</time>
      </trkpt>
      <trkpt lat="45.41962" lon="5.90178">
        <ele>1831.93</ele>
        <time>2013-02-17T11:36:11Z</time>
      </trkpt>
      <trkpt lat="45.41963" lon="5.90177">
        <ele>1830.01</ele>
        <time>2013-02-17T11:36:14Z</time>
      </trkpt>
      <trkpt lat="45.41965" lon="5.90176">
        <ele>1829.05</ele>
        <time>2013-02-17T11:36:31Z</time>
      </trkpt>
      <trkpt lat="45.41966" lon="5.90175">
        <ele>1830.01</ele>
        <time>2013-02-17T11:37:46Z</time>
      </trkpt>
      <trkpt lat="45.41966" lon="5.90175">
        <ele>1829.05</ele>
        <time>2013-02-17T11:38:21Z</time>
      </trkpt>
      <trkpt lat="45.41965" lon="5.90175">
        <ele>1829.05</ele>
        <time>2013-02-17T11:38:31Z</time>
      </trkpt>
      <trkpt lat="45.41966" lon="5.90161">
        <ele>1826.64</ele>
        <time>2013-02-17T11:38:35Z</time>
      </trkpt>
      <trkpt lat="45.41968" lon="5.90151">
        <ele>1821.35</ele>
        <time>2013-02-17T11:38:38Z</time>
      </trkpt>
      <trkpt lat="45.41971" lon="5.90146">
        <ele>1817.99</ele>
        <time>2013-02-17T11:38:40Z</time>
      </trkpt>
      <trkpt lat="45.41971" lon="5.90147">
        <ele>1814.63</ele>
        <time>2013-02-17T11:38:44Z</time>
      </trkpt>
      <trkpt lat="45.41971" lon="5.90148">
        <ele>1814.63</ele>
        <time>2013-02-17T11:38:45Z</time>
      </trkpt>
      <trkpt lat="45.4197" lon="5.90148">
        <ele>1814.63</ele>
        <time>2013-02-17T11:38:46Z</time>
      </trkpt>
      <trkpt lat="45.41967" lon="5.90147">
        <ele>1812.22</ele>
        <time>2013-02-17T11:38:59Z</time>
      </trkpt>
      <trkpt lat="45.41967" lon="5.90147">
        <ele>1810.3</ele>
        <time>2013-02-17T11:39:12Z</time>
      </trkpt>
      <trkpt lat="45.41969" lon="5.90145">
        <ele>1808.86</ele>
        <time>2013-02-17T11:39:24Z</time>
      </trkpt>
      <trkpt lat="45.41969" lon="5.90144">
        <ele>1807.9</ele>
        <time>2013-02-17T11:39:26Z</time>
      </trkpt>
      <trkpt lat="45.41966" lon="5.90143">
        <ele>1805.49</ele>
        <time>2013-02-17T11:39:38Z</time>
      </trkpt>
      <trkpt lat="45.4197" lon="5.90143">
        <ele>1805.49</ele>
        <time>2013-02-17T11:40:00Z</time>
      </trkpt>
      <trkpt lat="45.41972" lon="5.90143">
        <ele>1805.49</ele>
        <time>2013-02-17T11:40:13Z</time>
      </trkpt>
      <trkpt lat="45.41975" lon="5.90143">
        <ele>1804.53</ele>
        <time>2013-02-17T11:40:28Z</time>
      </trkpt>
      <trkpt lat="45.41976" lon="5.90141">
        <ele>1803.09</ele>
        <time>2013-02-17T11:40:53Z</time>
      </trkpt>
      <trkpt lat="45.41973" lon="5.90142">
        <ele>1802.13</ele>
        <time>2013-02-17T11:41:04Z</time>
      </trkpt>
      <trkpt lat="45.41972" lon="5.90138">
        <ele>1798.76</ele>
        <time>2013-02-17T11:42:58Z</time>
      </trkpt>
      <trkpt lat="45.41968" lon="5.90134">
        <ele>1797.8</ele>
        <time>2013-02-17T11:43:15Z</time>
      </trkpt>
      <trkpt lat="45.41967" lon="5.90133">
        <ele>1796.84</ele>
        <time>2013-02-17T11:43:39Z</time>
      </trkpt>
      <trkpt lat="45.41967" lon="5.90135">
        <ele>1797.32</ele>
        <time>2013-02-17T11:44:04Z</time>
      </trkpt>
      <trkpt lat="45.41971" lon="5.90134">
        <ele>1797.32</ele>
        <time>2013-02-17T11:44:54Z</time>
      </trkpt>
      <trkpt lat="45.41967" lon="5.90134">
        <ele>1796.84</ele>
        <time>2013-02-17T11:45:14Z</time>
      </trkpt>
      <trkpt lat="45.41966" lon="5.90135">
        <ele>1797.32</ele>
        <time>2013-02-17T11:45:34Z</time>
      </trkpt>
      <trkpt lat="45.41968" lon="5.90131">
        <ele>1798.28</ele>
        <time>2013-02-17T11:46:36Z</time>
      </trkpt>
      <trkpt lat="45.4197" lon="5.90131">
        <ele>1797.8</ele>
        <time>2013-02-17T11:46:50Z</time>
      </trkpt>
      <trkpt lat="45.41974" lon="5.9013">
        <ele>1799.73</ele>
        <time>2013-02-17T11:50:46Z</time>
      </trkpt>
      <trkpt lat="45.41969" lon="5.90132">
        <ele>1798.76</ele>
        <time>2013-02-17T11:51:31Z</time>
      </trkpt>
      <trkpt lat="45.41968" lon="5.90132">
        <ele>1800.21</ele>
        <time>2013-02-17T11:57:39Z</time>
      </trkpt>
      <trkpt lat="45.41967" lon="5.90133">
        <ele>1796.84</ele>
        <time>2013-02-17T12:01:16Z</time>
      </trkpt>
      <trkpt lat="45.41967" lon="5.90133">
        <ele>1793.96</ele>
        <time>2013-02-17T12:01:48Z</time>
      </trkpt>
      <trkpt lat="45.41961" lon="5.90134">
        <ele>1792.03</ele>
        <time>2013-02-17T12:02:13Z</time>
      </trkpt>
      <trkpt lat="45.4196" lon="5.90133">
        <ele>1791.07</ele>
        <time>2013-02-17T12:02:38Z</time>
      </trkpt>
      <trkpt lat="45.4196" lon="5.90133">
        <ele>1791.07</ele>
        <time>2013-02-17T12:03:29Z</time>
      </trkpt>
      <trkpt lat="45.4196" lon="5.90133">
        <ele>1791.07</ele>
        <time>2013-02-17T12:04:07Z</time>
      </trkpt>
      <trkpt lat="45.41959" lon="5.90133">
        <ele>1791.07</ele>
        <time>2013-02-17T12:04:30Z</time>
      </trkpt>
      <trkpt lat="45.41959" lon="5.90133">
        <ele>1790.59</ele>
        <time>2013-02-17T12:06:23Z</time>
      </trkpt>
      <trkpt lat="45.41959" lon="5.90133">
        <ele>1791.07</ele>
        <time>2013-02-17T12:06:51Z</time>
      </trkpt>
      <trkpt lat="45.41959" lon="5.90133">
        <ele>1791.07</ele>
        <time>2013-02-17T12:07:58Z</time>
      </trkpt>
      <trkpt lat="45.41959" lon="5.90134">
        <ele>1791.07</ele>
        <time>2013-02-17T12:09:23Z</time>
      </trkpt>
      <trkpt lat="45.41959" lon="5.90133">
        <ele>1791.07</ele>
        <time>2013-02-17T12:09:51Z</time>
      </trkpt>
      <trkpt lat="45.41959" lon="5.90133">
        <ele>1791.07</ele>
        <time>2013-02-17T12:10:17Z</time>
      </trkpt>
      <trkpt lat="45.41959" lon="5.90134">
        <ele>1791.07</ele>
        <time>2013-02-17T12:10:43Z</time>
      </trkpt>
      <trkpt lat="45.41957" lon="5.90134">
        <ele>1789.63</ele>
        <time>2013-02-17T12:10:56Z</time>
      </trkpt>
      <trkpt lat="45.41959" lon="5.90132">
        <ele>1787.71</ele>
        <time>2013-02-17T12:11:00Z</time>
      </trkpt>
      <trkpt lat="45.41958" lon="5.90132">
        <ele>1785.79</ele>
        <time>2013-02-17T12:11:09Z</time>
      </trkpt>
      <trkpt lat="45.41948" lon="5.90117">
        <ele>1782.9</ele>
        <time>2013-02-17T12:11:13Z</time>
      </trkpt>
      <trkpt lat="45.41947" lon="5.90099">
        <ele>1774.25</ele>
        <time>2013-02-17T12:11:16Z</time>
      </trkpt>
      <trkpt lat="45.41947" lon="5.90097">
        <ele>1770.89</ele>
        <time>2013-02-17T12:11:17Z</time>
      </trkpt>
      <trkpt lat="45.41947" lon="5.90091">
        <ele>1767.04</ele>
        <time>2013-02-17T12:11:18Z</time>
      </trkpt>
      <trkpt lat="45.41947" lon="5.90087">
        <ele>1763.68</ele>
        <time>2013-02-17T12:11:19Z</time>
      </trkpt>
      <trkpt lat="45.41945" lon="5.90085">
        <ele>1760.31</ele>
        <time>2013-02-17T12:11:20Z</time>
      </trkpt>
      <trkpt lat="45.41946" lon="5.90084">
        <ele>1757.91</ele>
        <time>2013-02-17T12:11:22Z</time>
      </trkpt>
      <trkpt lat="45.41946" lon="5.90084">
        <ele>1754.54</ele>
        <time>2013-02-17T12:11:25Z</time>
      </trkpt>
      <trkpt lat="45.41946" lon="5.90084">
        <ele>1754.54</ele>
        <time>2013-02-17T12:11:26Z</time>
      </trkpt>
      <trkpt lat="45.41946" lon="5.90084">
        <ele>1755.5</ele>
        <time>2013-02-17T12:12:03Z</time>
      </trkpt>
      <trkpt lat="45.41946" lon="5.90083">
        <ele>1755.02</ele>
        <time>2013-02-17T12:12:34Z</time>
      </trkpt>
      <trkpt lat="45.41945" lon="5.90082">
        <ele>1754.54</ele>
        <time>2013-02-17T12:12:42Z</time>
      </trkpt>
      <trkpt lat="45.41948" lon="5.90076">
        <ele>1752.14</ele>
        <time>2013-02-17T12:12:47Z</time>
      </trkpt>
      <trkpt lat="45.41948" lon="5.90075">
        <ele>1752.14</ele>
        <time>2013-02-17T12:13:10Z</time>
      </trkpt>
      <trkpt lat="45.41948" lon="5.90075">
        <ele>1752.62</ele>
        <time>2013-02-17T12:13:40Z</time>
      </trkpt>
      <trkpt lat="45.41948" lon="5.90075">
        <ele>1752.62</ele>
        <time>2013-02-17T12:14:38Z</time>
      </trkpt>
      <trkpt lat="45.41948" lon="5.90075">
        <ele>1753.1</ele>
        <time>2013-02-17T12:15:40Z</time>
      </trkpt>
      <trkpt lat="45.41949" lon="5.90075">
        <ele>1752.62</ele>
        <time>2013-02-17T12:16:09Z</time>
      </trkpt>
      <trkpt lat="45.41949" lon="5.90075">
        <ele>1753.1</ele>
        <time>2013-02-17T12:16:57Z</time>
      </trkpt>
      <trkpt lat="45.41949" lon="5.90074">
        <ele>1753.1</ele>
        <time>2013-02-17T12:17:37Z</time>
      </trkpt>
      <trkpt lat="45.4195" lon="5.90075">
        <ele>1753.58</ele>
        <time>2013-02-17T12:18:03Z</time>
      </trkpt>
      <trkpt lat="45.4195" lon="5.90075">
        <ele>1753.1</ele>
        <time>2013-02-17T12:18:41Z</time>
      </trkpt>
      <trkpt lat="45.4195" lon="5.90075">
        <ele>1753.58</ele>
        <time>2013-02-17T12:19:04Z</time>
      </trkpt>
      <trkpt lat="45.41951" lon="5.90076">
        <ele>1753.58</ele>
        <time>2013-02-17T12:19:26Z</time>
      </trkpt>
      <trkpt lat="45.41951" lon="5.90076">
        <ele>1753.1</ele>
        <time>2013-02-17T12:19:41Z</time>
      </trkpt>
      <trkpt lat="45.41939" lon="5.90057">
        <ele>1748.29</ele>
        <time>2013-02-17T12:19:47Z</time>
      </trkpt>
      <trkpt lat="45.41936" lon="5.90052">
        <ele>1744.93</ele>
        <time>2013-02-17T12:19:48Z</time>
      </trkpt>
      <trkpt lat="45.41935" lon="5.90048">
        <ele>1741.08</ele>
        <time>2013-02-17T12:19:49Z</time>
      </trkpt>
      <trkpt lat="45.41935" lon="5.90042">
        <ele>1736.76</ele>
        <time>2013-02-17T12:19:50Z</time>
      </trkpt>
      <trkpt lat="45.41937" lon="5.90026">
        <ele>1727.63</ele>
        <time>2013-02-17T12:19:52Z</time>
      </trkpt>
      <trkpt lat="45.41933" lon="5.90011">
        <ele>1722.82</ele>
        <time>2013-02-17T12:19:54Z</time>
      </trkpt>
      <trkpt lat="45.41936" lon="5.89998">
        <ele>1713.21</ele>
        <time>2013-02-17T12:19:56Z</time>
      </trkpt>
      <trkpt lat="45.4194" lon="5.89993">
        <ele>1708.4</ele>
        <time>2013-02-17T12:19:57Z</time>
      </trkpt>
      <trkpt lat="45.41942" lon="5.89988">
        <ele>1703.59</ele>
        <time>2013-02-17T12:19:58Z</time>
      </trkpt>
      <trkpt lat="45.41943" lon="5.89982">
        <ele>1699.75</ele>
        <time>2013-02-17T12:19:59Z</time>
      </trkpt>
      <trkpt lat="45.41942" lon="5.89975">
        <ele>1692.54</ele>
        <time>2013-02-17T12:20:01Z</time>
      </trkpt>
      <trkpt lat="45.41939" lon="5.8997">
        <ele>1687.73</ele>
        <time>2013-02-17T12:20:03Z</time>
      </trkpt>
      <trkpt lat="45.41937" lon="5.89968">
        <ele>1686.29</ele>
        <time>2013-02-17T12:20:05Z</time>
      </trkpt>
      <trkpt lat="45.41937" lon="5.89967">
        <ele>1684.37</ele>
        <time>2013-02-17T12:20:08Z</time>
      </trkpt>
      <trkpt lat="45.41937" lon="5.89966">
        <ele>1684.85</ele>
        <time>2013-02-17T12:21:40Z</time>
      </trkpt>
      <trkpt lat="45.41937" lon="5.89966">
        <ele>1683.89</ele>
        <time>2013-02-17T12:21:48Z</time>
      </trkpt>
      <trkpt lat="45.41942" lon="5.89957">
        <ele>1680.04</ele>
        <time>2013-02-17T12:21:52Z</time>
      </trkpt>
      <trkpt lat="45.41945" lon="5.89951">
        <ele>1678.12</ele>
        <time>2013-02-17T12:21:54Z</time>
      </trkpt>
      <trkpt lat="45.41958" lon="5.89942">
        <ele>1671.39</ele>
        <time>2013-02-17T12:21:57Z</time>
      </trkpt>
      <trkpt lat="45.41961" lon="5.89934">
        <ele>1668.02</ele>
        <time>2013-02-17T12:21:59Z</time>
      </trkpt>
      <trkpt lat="45.41951" lon="5.89922">
        <ele>1663.22</ele>
        <time>2013-02-17T12:22:03Z</time>
      </trkpt>
      <trkpt lat="45.41944" lon="5.89914">
        <ele>1660.33</ele>
        <time>2013-02-17T12:22:06Z</time>
      </trkpt>
      <trkpt lat="45.41944" lon="5.89903">
        <ele>1656.97</ele>
        <time>2013-02-17T12:22:09Z</time>
      </trkpt>
      <trkpt lat="45.41945" lon="5.89905">
        <ele>1655.05</ele>
        <time>2013-02-17T12:22:18Z</time>
      </trkpt>
      <trkpt lat="45.41947" lon="5.89905">
        <ele>1654.57</ele>
        <time>2013-02-17T12:22:21Z</time>
      </trkpt>
      <trkpt lat="45.41957" lon="5.89907">
        <ele>1651.68</ele>
        <time>2013-02-17T12:22:30Z</time>
      </trkpt>
      <trkpt lat="45.41966" lon="5.89912">
        <ele>1653.12</ele>
        <time>2013-02-17T12:22:56Z</time>
      </trkpt>
      <trkpt lat="45.41967" lon="5.89911">
        <ele>1652.64</ele>
        <time>2013-02-17T12:23:10Z</time>
      </trkpt>
      <trkpt lat="45.41971" lon="5.89909">
        <ele>1650.72</ele>
        <time>2013-02-17T12:23:25Z</time>
      </trkpt>
      <trkpt lat="45.41971" lon="5.89909">
        <ele>1650.72</ele>
        <time>2013-02-17T12:23:41Z</time>
      </trkpt>
      <trkpt lat="45.41973" lon="5.89905">
        <ele>1647.84</ele>
        <time>2013-02-17T12:23:51Z</time>
      </trkpt>
      <trkpt lat="45.41973" lon="5.89903">
        <ele>1647.84</ele>
        <time>2013-02-17T12:23:54Z</time>
      </trkpt>
      <trkpt lat="45.41975" lon="5.899">
        <ele>1645.91</ele>
        <time>2013-02-17T12:23:56Z</time>
      </trkpt>
      <trkpt lat="45.41973" lon="5.89899">
        <ele>1644.47</ele>
        <time>2013-02-17T12:23:59Z</time>
      </trkpt>
      <trkpt lat="45.41972" lon="5.89897">
        <ele>1642.55</ele>
        <time>2013-02-17T12:24:20Z</time>
      </trkpt>
      <trkpt lat="45.41956" lon="5.89895">
        <ele>1639.19</ele>
        <time>2013-02-17T12:24:26Z</time>
      </trkpt>
      <trkpt lat="45.41957" lon="5.89882">
        <ele>1634.86</ele>
        <time>2013-02-17T12:24:31Z</time>
      </trkpt>
      <trkpt lat="45.41958" lon="5.89885">
        <ele>1634.38</ele>
        <time>2013-02-17T12:24:42Z</time>
      </trkpt>
      <trkpt lat="45.41959" lon="5.89886">
        <ele>1634.86</ele>
        <time>2013-02-17T12:25:22Z</time>
      </trkpt>
      <trkpt lat="45.41958" lon="5.89883">
        <ele>1634.86</ele>
        <time>2013-02-17T12:26:11Z</time>
      </trkpt>
      <trkpt lat="45.41953" lon="5.89874">
        <ele>1630.53</ele>
        <time>2013-02-17T12:26:15Z</time>
      </trkpt>
      <trkpt lat="45.41953" lon="5.89872">
        <ele>1630.53</ele>
        <time>2013-02-17T12:26:16Z</time>
      </trkpt>
      <trkpt lat="45.41953" lon="5.89859">
        <ele>1626.69</ele>
        <time>2013-02-17T12:26:20Z</time>
      </trkpt>
      <trkpt lat="45.41957" lon="5.89846">
        <ele>1621.4</ele>
        <time>2013-02-17T12:26:23Z</time>
      </trkpt>
      <trkpt lat="45.41958" lon="5.89839">
        <ele>1615.63</ele>
        <time>2013-02-17T12:26:25Z</time>
      </trkpt>
      <trkpt lat="45.41959" lon="5.89834">
        <ele>1612.75</ele>
        <time>2013-02-17T12:26:27Z</time>
      </trkpt>
      <trkpt lat="45.41958" lon="5.89831">
        <ele>1606.5</ele>
        <time>2013-02-17T12:26:30Z</time>
      </trkpt>
      <trkpt lat="45.41957" lon="5.89832">
        <ele>1606.5</ele>
        <time>2013-02-17T12:27:08Z</time>
      </trkpt>
      <trkpt lat="45.41957" lon="5.89832">
        <ele>1606.02</ele>
        <time>2013-02-17T12:27:22Z</time>
      </trkpt>
      <trkpt lat="45.41968" lon="5.89829">
        <ele>1604.1</ele>
        <time>2013-02-17T12:27:26Z</time>
      </trkpt>
      <trkpt lat="45.41972" lon="5.89815">
        <ele>1598.33</ele>
        <time>2013-02-17T12:27:30Z</time>
      </trkpt>
      <trkpt lat="45.41972" lon="5.89811">
        <ele>1598.33</ele>
        <time>2013-02-17T12:27:31Z</time>
      </trkpt>
      <trkpt lat="45.41962" lon="5.89801">
        <ele>1592.08</ele>
        <time>2013-02-17T12:27:34Z</time>
      </trkpt>
      <trkpt lat="45.41958" lon="5.89799">
        <ele>1589.68</ele>
        <time>2013-02-17T12:27:35Z</time>
      </trkpt>
      <trkpt lat="45.41945" lon="5.89793">
        <ele>1584.87</ele>
        <time>2013-02-17T12:27:38Z</time>
      </trkpt>
      <trkpt lat="45.41943" lon="5.8979">
        <ele>1583.91</ele>
        <time>2013-02-17T12:27:39Z</time>
      </trkpt>
      <trkpt lat="45.41942" lon="5.89779">
        <ele>1582.47</ele>
        <time>2013-02-17T12:27:41Z</time>
      </trkpt>
      <trkpt lat="45.41941" lon="5.89769">
        <ele>1578.14</ele>
        <time>2013-02-17T12:27:43Z</time>
      </trkpt>
      <trkpt lat="45.41944" lon="5.89756">
        <ele>1571.89</ele>
        <time>2013-02-17T12:27:45Z</time>
      </trkpt>
      <trkpt lat="45.41943" lon="5.89749">
        <ele>1568.53</ele>
        <time>2013-02-17T12:27:46Z</time>
      </trkpt>
      <trkpt lat="45.41946" lon="5.8973">
        <ele>1558.43</ele>
        <time>2013-02-17T12:27:49Z</time>
      </trkpt>
      <trkpt lat="45.41949" lon="5.89725">
        <ele>1555.55</ele>
        <time>2013-02-17T12:27:50Z</time>
      </trkpt>
      <trkpt lat="45.41952" lon="5.8972">
        <ele>1552.67</ele>
        <time>2013-02-17T12:27:51Z</time>
      </trkpt>
      <trkpt lat="45.41958" lon="5.8971">
        <ele>1549.3</ele>
        <time>2013-02-17T12:27:53Z</time>
      </trkpt>
      <trkpt lat="45.41961" lon="5.89689">
        <ele>1542.09</ele>
        <time>2013-02-17T12:27:56Z</time>
      </trkpt>
      <trkpt lat="45.41961" lon="5.89677">
        <ele>1536.32</ele>
        <time>2013-02-17T12:27:58Z</time>
      </trkpt>
      <trkpt lat="45.41961" lon="5.89669">
        <ele>1532.48</ele>
        <time>2013-02-17T12:27:59Z</time>
      </trkpt>
      <trkpt lat="45.41962" lon="5.89665">
        <ele>1529.11</ele>
        <time>2013-02-17T12:28:00Z</time>
      </trkpt>
      <trkpt lat="45.41962" lon="5.89663">
        <ele>1524.31</ele>
        <time>2013-02-17T12:28:02Z</time>
      </trkpt>
      <trkpt lat="45.41963" lon="5.89662">
        <ele>1524.31</ele>
        <time>2013-02-17T12:28:03Z</time>
      </trkpt>
      <trkpt lat="45.41961" lon="5.89664">
        <ele>1521.9</ele>
        <time>2013-02-17T12:28:09Z</time>
      </trkpt>
      <trkpt lat="45.4195" lon="5.89651">
        <ele>1519.5</ele>
        <time>2013-02-17T12:28:15Z</time>
      </trkpt>
      <trkpt lat="45.4195" lon="5.89638">
        <ele>1514.21</ele>
        <time>2013-02-17T12:28:18Z</time>
      </trkpt>
      <trkpt lat="45.41949" lon="5.89633">
        <ele>1511.33</ele>
        <time>2013-02-17T12:28:19Z</time>
      </trkpt>
      <trkpt lat="45.41949" lon="5.89618">
        <ele>1503.64</ele>
        <time>2013-02-17T12:28:22Z</time>
      </trkpt>
      <trkpt lat="45.4195" lon="5.89617">
        <ele>1501.72</ele>
        <time>2013-02-17T12:28:24Z</time>
      </trkpt>
      <trkpt lat="45.4195" lon="5.89617">
        <ele>1499.79</ele>
        <time>2013-02-17T12:29:08Z</time>
      </trkpt>
      <trkpt lat="45.4195" lon="5.89617">
        <ele>1500.76</ele>
        <time>2013-02-17T12:29:40Z</time>
      </trkpt>
      <trkpt lat="45.4195" lon="5.89617">
        <ele>1501.24</ele>
        <time>2013-02-17T12:30:18Z</time>
      </trkpt>
      <trkpt lat="45.41948" lon="5.896">
        <ele>1497.39</ele>
        <time>2013-02-17T12:30:22Z</time>
      </trkpt>
      <trkpt lat="45.41948" lon="5.89595">
        <ele>1494.99</ele>
        <time>2013-02-17T12:30:23Z</time>
      </trkpt>
      <trkpt lat="45.41949" lon="5.89582">
        <ele>1489.22</ele>
        <time>2013-02-17T12:30:26Z</time>
      </trkpt>
      <trkpt lat="45.41949" lon="5.89575">
        <ele>1483.93</ele>
        <time>2013-02-17T12:30:28Z</time>
      </trkpt>
      <trkpt lat="45.41949" lon="5.89566">
        <ele>1479.13</ele>
        <time>2013-02-17T12:30:30Z</time>
      </trkpt>
      <trkpt lat="45.41946" lon="5.89553">
        <ele>1474.8</ele>
        <time>2013-02-17T12:30:32Z</time>
      </trkpt>
      <trkpt lat="45.41945" lon="5.8954">
        <ele>1469.99</ele>
        <time>2013-02-17T12:30:34Z</time>
      </trkpt>
      <trkpt lat="45.41946" lon="5.89535">
        <ele>1469.99</ele>
        <time>2013-02-17T12:30:35Z</time>
      </trkpt>
      <trkpt lat="45.41943" lon="5.8953">
        <ele>1465.19</ele>
        <time>2013-02-17T12:30:37Z</time>
      </trkpt>
      <trkpt lat="45.41941" lon="5.89526">
        <ele>1460.86</ele>
        <time>2013-02-17T12:30:39Z</time>
      </trkpt>
      <trkpt lat="45.4194" lon="5.89529">
        <ele>1458.46</ele>
        <time>2013-02-17T12:30:50Z</time>
      </trkpt>
      <trkpt lat="45.41942" lon="5.89515">
        <ele>1455.57</ele>
        <time>2013-02-17T12:31:09Z</time>
      </trkpt>
      <trkpt lat="45.41938" lon="5.89512">
        <ele>1453.17</ele>
        <time>2013-02-17T12:31:11Z</time>
      </trkpt>
      <trkpt lat="45.41933" lon="5.8951">
        <ele>1449.81</ele>
        <time>2013-02-17T12:31:15Z</time>
      </trkpt>
      <trkpt lat="45.41935" lon="5.89503">
        <ele>1447.88</ele>
        <time>2013-02-17T12:31:19Z</time>
      </trkpt>
      <trkpt lat="45.41928" lon="5.895">
        <ele>1444.52</ele>
        <time>2013-02-17T12:31:30Z</time>
      </trkpt>
      <trkpt lat="45.41926" lon="5.89499">
        <ele>1445</ele>
        <time>2013-02-17T12:31:50Z</time>
      </trkpt>
      <trkpt lat="45.41929" lon="5.895">
        <ele>1444.52</ele>
        <time>2013-02-17T12:31:55Z</time>
      </trkpt>
      <trkpt lat="45.41921" lon="5.89487">
        <ele>1441.63</ele>
        <time>2013-02-17T12:31:59Z</time>
      </trkpt>
      <trkpt lat="45.41911" lon="5.89477">
        <ele>1439.23</ele>
        <time>2013-02-17T12:32:02Z</time>
      </trkpt>
      <trkpt lat="45.41917" lon="5.89479">
        <ele>1438.27</ele>
        <time>2013-02-17T12:32:13Z</time>
      </trkpt>
      <trkpt lat="45.41915" lon="5.89477">
        <ele>1435.39</ele>
        <time>2013-02-17T12:33:19Z</time>
      </trkpt>
      <trkpt lat="45.41913" lon="5.89476">
        <ele>1435.39</ele>
        <time>2013-02-17T12:33:20Z</time>
      </trkpt>
      <trkpt lat="45.41904" lon="5.89471">
        <ele>1432.02</ele>
        <time>2013-02-17T12:33:26Z</time>
      </trkpt>
      <trkpt lat="45.41904" lon="5.89469">
        <ele>1431.54</ele>
        <time>2013-02-17T12:33:27Z</time>
      </trkpt>
      <trkpt lat="45.41911" lon="5.89458">
        <ele>1427.7</ele>
        <time>2013-02-17T12:33:35Z</time>
      </trkpt>
      <trkpt lat="45.4191" lon="5.89455">
        <ele>1427.21</ele>
        <time>2013-02-17T12:33:37Z</time>
      </trkpt>
      <trkpt lat="45.41912" lon="5.89437">
        <ele>1423.37</ele>
        <time>2013-02-17T12:33:48Z</time>
      </trkpt>
      <trkpt lat="45.41917" lon="5.89432">
        <ele>1420.49</ele>
        <time>2013-02-17T12:33:59Z</time>
      </trkpt>
      <trkpt lat="45.41919" lon="5.89433">
        <ele>1417.6</ele>
        <time>2013-02-17T12:34:04Z</time>
      </trkpt>
      <trkpt lat="45.41916" lon="5.89433">
        <ele>1417.12</ele>
        <time>2013-02-17T12:34:11Z</time>
      </trkpt>
      <trkpt lat="45.41897" lon="5.8943">
        <ele>1414.24</ele>
        <time>2013-02-17T12:34:25Z</time>
      </trkpt>
      <trkpt lat="45.41889" lon="5.89419">
        <ele>1413.28</ele>
        <time>2013-02-17T12:34:29Z</time>
      </trkpt>
      <trkpt lat="45.41885" lon="5.89417">
        <ele>1409.43</ele>
        <time>2013-02-17T12:34:34Z</time>
      </trkpt>
      <trkpt lat="45.41883" lon="5.89416">
        <ele>1408.47</ele>
        <time>2013-02-17T12:34:36Z</time>
      </trkpt>
      <trkpt lat="45.41884" lon="5.89409">
        <ele>1407.51</ele>
        <time>2013-02-17T12:34:51Z</time>
      </trkpt>
      <trkpt lat="45.41883" lon="5.89408">
        <ele>1407.51</ele>
        <time>2013-02-17T12:34:54Z</time>
      </trkpt>
      <trkpt lat="45.41877" lon="5.89403">
        <ele>1406.07</ele>
        <time>2013-02-17T12:34:58Z</time>
      </trkpt>
      <trkpt lat="45.41871" lon="5.89398">
        <ele>1404.62</ele>
        <time>2013-02-17T12:35:00Z</time>
      </trkpt>
      <trkpt lat="45.41871" lon="5.89375">
        <ele>1399.34</ele>
        <time>2013-02-17T12:35:04Z</time>
      </trkpt>
      <trkpt lat="45.41878" lon="5.89356">
        <ele>1395.01</ele>
        <time>2013-02-17T12:35:07Z</time>
      </trkpt>
      <trkpt lat="45.41879" lon="5.89345">
        <ele>1390.68</ele>
        <time>2013-02-17T12:35:09Z</time>
      </trkpt>
      <trkpt lat="45.41881" lon="5.89339">
        <ele>1388.76</ele>
        <time>2013-02-17T12:35:10Z</time>
      </trkpt>
      <trkpt lat="45.41881" lon="5.89316">
        <ele>1381.55</ele>
        <time>2013-02-17T12:35:13Z</time>
      </trkpt>
      <trkpt lat="45.41884" lon="5.89302">
        <ele>1377.23</ele>
        <time>2013-02-17T12:35:15Z</time>
      </trkpt>
      <trkpt lat="45.41886" lon="5.89297">
        <ele>1375.3</ele>
        <time>2013-02-17T12:35:16Z</time>
      </trkpt>
      <trkpt lat="45.41895" lon="5.89282">
        <ele>1370.98</ele>
        <time>2013-02-17T12:35:19Z</time>
      </trkpt>
      <trkpt lat="45.41897" lon="5.89272">
        <ele>1367.13</ele>
        <time>2013-02-17T12:35:21Z</time>
      </trkpt>
      <trkpt lat="45.41897" lon="5.89262">
        <ele>1363.77</ele>
        <time>2013-02-17T12:35:23Z</time>
      </trkpt>
      <trkpt lat="45.41902" lon="5.89257">
        <ele>1360.4</ele>
        <time>2013-02-17T12:35:25Z</time>
      </trkpt>
      <trkpt lat="45.41905" lon="5.89252">
        <ele>1356.08</ele>
        <time>2013-02-17T12:35:27Z</time>
      </trkpt>
      <trkpt lat="45.41908" lon="5.89245">
        <ele>1356.08</ele>
        <time>2013-02-17T12:35:28Z</time>
      </trkpt>
      <trkpt lat="45.4191" lon="5.8924">
        <ele>1353.19</ele>
        <time>2013-02-17T12:35:29Z</time>
      </trkpt>
      <trkpt lat="45.41924" lon="5.89244">
        <ele>1347.91</ele>
        <time>2013-02-17T12:35:32Z</time>
      </trkpt>
      <trkpt lat="45.41926" lon="5.89245">
        <ele>1346.46</ele>
        <time>2013-02-17T12:35:35Z</time>
      </trkpt>
      <trkpt lat="45.41928" lon="5.89247">
        <ele>1346.46</ele>
        <time>2013-02-17T12:35:46Z</time>
      </trkpt>
      <trkpt lat="45.41927" lon="5.89247">
        <ele>1348.87</ele>
        <time>2013-02-17T12:37:03Z</time>
      </trkpt>
      <trkpt lat="45.41925" lon="5.89232">
        <ele>1344.06</ele>
        <time>2013-02-17T12:37:33Z</time>
      </trkpt>
      <trkpt lat="45.4193" lon="5.89222">
        <ele>1341.18</ele>
        <time>2013-02-17T12:37:35Z</time>
      </trkpt>
      <trkpt lat="45.41931" lon="5.89214">
        <ele>1335.89</ele>
        <time>2013-02-17T12:37:37Z</time>
      </trkpt>
      <trkpt lat="45.41934" lon="5.89204">
        <ele>1331.08</ele>
        <time>2013-02-17T12:37:39Z</time>
      </trkpt>
      <trkpt lat="45.41938" lon="5.89192">
        <ele>1325.8</ele>
        <time>2013-02-17T12:37:41Z</time>
      </trkpt>
      <trkpt lat="45.4194" lon="5.89179">
        <ele>1320.99</ele>
        <time>2013-02-17T12:37:43Z</time>
      </trkpt>
      <trkpt lat="45.41938" lon="5.89166">
        <ele>1319.07</ele>
        <time>2013-02-17T12:37:45Z</time>
      </trkpt>
      <trkpt lat="45.41937" lon="5.89152">
        <ele>1314.74</ele>
        <time>2013-02-17T12:37:47Z</time>
      </trkpt>
      <trkpt lat="45.41939" lon="5.89133">
        <ele>1308.49</ele>
        <time>2013-02-17T12:37:49Z</time>
      </trkpt>
      <trkpt lat="45.41941" lon="5.89124">
        <ele>1305.61</ele>
        <time>2013-02-17T12:37:50Z</time>
      </trkpt>
      <trkpt lat="45.41948" lon="5.89105">
        <ele>1296.96</ele>
        <time>2013-02-17T12:37:53Z</time>
      </trkpt>
      <trkpt lat="45.41955" lon="5.89096">
        <ele>1293.11</ele>
        <time>2013-02-17T12:37:55Z</time>
      </trkpt>
      <trkpt lat="45.41961" lon="5.8909">
        <ele>1290.71</ele>
        <time>2013-02-17T12:37:57Z</time>
      </trkpt>
      <trkpt lat="45.41974" lon="5.89095">
        <ele>1286.86</ele>
        <time>2013-02-17T12:38:00Z</time>
      </trkpt>
      <trkpt lat="45.4197" lon="5.89085">
        <ele>1286.86</ele>
        <time>2013-02-17T12:38:10Z</time>
      </trkpt>
      <trkpt lat="45.41969" lon="5.89074">
        <ele>1285.9</ele>
        <time>2013-02-17T12:38:13Z</time>
      </trkpt>
      <trkpt lat="45.41962" lon="5.89058">
        <ele>1281.57</ele>
        <time>2013-02-17T12:38:16Z</time>
      </trkpt>
      <trkpt lat="45.41954" lon="5.8905">
        <ele>1277.25</ele>
        <time>2013-02-17T12:38:18Z</time>
      </trkpt>
      <trkpt lat="45.4195" lon="5.89035">
        <ele>1272.44</ele>
        <time>2013-02-17T12:38:21Z</time>
      </trkpt>
      <trkpt lat="45.41945" lon="5.89026">
        <ele>1268.12</ele>
        <time>2013-02-17T12:38:23Z</time>
      </trkpt>
      <trkpt lat="45.41942" lon="5.89014">
        <ele>1263.79</ele>
        <time>2013-02-17T12:38:25Z</time>
      </trkpt>
      <trkpt lat="45.41945" lon="5.89006">
        <ele>1260.43</ele>
        <time>2013-02-17T12:38:27Z</time>
      </trkpt>
      <trkpt lat="45.41946" lon="5.88997">
        <ele>1256.58</ele>
        <time>2013-02-17T12:38:29Z</time>
      </trkpt>
      <trkpt lat="45.41956" lon="5.88983">
        <ele>1249.37</ele>
        <time>2013-02-17T12:38:32Z</time>
      </trkpt>
      <trkpt lat="45.41955" lon="5.8898">
        <ele>1249.37</ele>
        <time>2013-02-17T12:38:33Z</time>
      </trkpt>
      <trkpt lat="45.41955" lon="5.88977">
        <ele>1246.97</ele>
        <time>2013-02-17T12:38:36Z</time>
      </trkpt>
      <trkpt lat="45.41959" lon="5.88983">
        <ele>1246.97</ele>
        <time>2013-02-17T12:38:49Z</time>
      </trkpt>
      <trkpt lat="45.41958" lon="5.88981">
        <ele>1250.81</ele>
        <time>2013-02-17T12:40:55Z</time>
      </trkpt>
      <trkpt lat="45.41959" lon="5.88981">
        <ele>1249.85</ele>
        <time>2013-02-17T12:40:56Z</time>
      </trkpt>
      <trkpt lat="45.41957" lon="5.88973">
        <ele>1246.49</ele>
        <time>2013-02-17T12:40:58Z</time>
      </trkpt>
      <trkpt lat="45.41956" lon="5.88968">
        <ele>1246.49</ele>
        <time>2013-02-17T12:40:59Z</time>
      </trkpt>
      <trkpt lat="45.41957" lon="5.88958">
        <ele>1242.16</ele>
        <time>2013-02-17T12:41:01Z</time>
      </trkpt>
      <trkpt lat="45.41958" lon="5.88952">
        <ele>1239.76</ele>
        <time>2013-02-17T12:41:02Z</time>
      </trkpt>
      <trkpt lat="45.41961" lon="5.88938">
        <ele>1233.51</ele>
        <time>2013-02-17T12:41:05Z</time>
      </trkpt>
      <trkpt lat="45.41968" lon="5.88933">
        <ele>1230.62</ele>
        <time>2013-02-17T12:41:08Z</time>
      </trkpt>
      <trkpt lat="45.41969" lon="5.8893">
        <ele>1230.14</ele>
        <time>2013-02-17T12:41:09Z</time>
      </trkpt>
      <trkpt lat="45.4198" lon="5.88918">
        <ele>1226.78</ele>
        <time>2013-02-17T12:41:16Z</time>
      </trkpt>
      <trkpt lat="45.41981" lon="5.88911">
        <ele>1221.97</ele>
        <time>2013-02-17T12:41:19Z</time>
      </trkpt>
      <trkpt lat="45.41982" lon="5.88909">
        <ele>1221.97</ele>
        <time>2013-02-17T12:41:20Z</time>
      </trkpt>
      <trkpt lat="45.41983" lon="5.88902">
        <ele>1217.65</ele>
        <time>2013-02-17T12:41:22Z</time>
      </trkpt>
      <trkpt lat="45.41983" lon="5.88892">
        <ele>1213.32</ele>
        <time>2013-02-17T12:41:24Z</time>
      </trkpt>
      <trkpt lat="45.41986" lon="5.8888">
        <ele>1209</ele>
        <time>2013-02-17T12:41:26Z</time>
      </trkpt>
      <trkpt lat="45.41988" lon="5.88869">
        <ele>1204.67</ele>
        <time>2013-02-17T12:41:28Z</time>
      </trkpt>
      <trkpt lat="45.41984" lon="5.88857">
        <ele>1201.79</ele>
        <time>2013-02-17T12:41:32Z</time>
      </trkpt>
      <trkpt lat="45.41982" lon="5.88856">
        <ele>1200.34</ele>
        <time>2013-02-17T12:41:46Z</time>
      </trkpt>
      <trkpt lat="45.41984" lon="5.88855">
        <ele>1199.38</ele>
        <time>2013-02-17T12:43:22Z</time>
      </trkpt>
      <trkpt lat="45.41988" lon="5.88849">
        <ele>1196.5</ele>
        <time>2013-02-17T12:43:25Z</time>
      </trkpt>
      <trkpt lat="45.4199" lon="5.88838">
        <ele>1192.65</ele>
        <time>2013-02-17T12:43:27Z</time>
      </trkpt>
      <trkpt lat="45.41992" lon="5.88827">
        <ele>1188.33</ele>
        <time>2013-02-17T12:43:29Z</time>
      </trkpt>
      <trkpt lat="45.41994" lon="5.88819">
        <ele>1184.48</ele>
        <time>2013-02-17T12:43:31Z</time>
      </trkpt>
      <trkpt lat="45.41996" lon="5.88807">
        <ele>1180.64</ele>
        <time>2013-02-17T12:43:33Z</time>
      </trkpt>
      <trkpt lat="45.41998" lon="5.88795">
        <ele>1176.79</ele>
        <time>2013-02-17T12:43:35Z</time>
      </trkpt>
      <trkpt lat="45.42" lon="5.88783">
        <ele>1173.91</ele>
        <time>2013-02-17T12:43:37Z</time>
      </trkpt>
      <trkpt lat="45.42" lon="5.88773">
        <ele>1170.06</ele>
        <time>2013-02-17T12:43:39Z</time>
      </trkpt>
      <trkpt lat="45.42002" lon="5.8876">
        <ele>1166.22</ele>
        <time>2013-02-17T12:43:42Z</time>
      </trkpt>
      <trkpt lat="45.42004" lon="5.88748">
        <ele>1162.85</ele>
        <time>2013-02-17T12:43:46Z</time>
      </trkpt>
      <trkpt lat="45.42005" lon="5.88748">
        <ele>1162.85</ele>
        <time>2013-02-17T12:43:47Z</time>
      </trkpt>
      <trkpt lat="45.42001" lon="5.88739">
        <ele>1160.93</ele>
        <time>2013-02-17T12:43:59Z</time>
      </trkpt>
      <trkpt lat="45.42002" lon="5.88723">
        <ele>1158.05</ele>
        <time>2013-02-17T12:44:39Z</time>
      </trkpt>
      <trkpt lat="45.42005" lon="5.88716">
        <ele>1155.16</ele>
        <time>2013-02-17T12:44:48Z</time>
      </trkpt>
      <trkpt lat="45.42008" lon="5.8871">
        <ele>1154.68</ele>
        <time>2013-02-17T12:44:50Z</time>
      </trkpt>
      <trkpt lat="45.42015" lon="5.88693">
        <ele>1149.87</ele>
        <time>2013-02-17T12:44:54Z</time>
      </trkpt>
      <trkpt lat="45.42019" lon="5.88689">
        <ele>1146.51</ele>
        <time>2013-02-17T12:44:56Z</time>
      </trkpt>
      <trkpt lat="45.42024" lon="5.8868">
        <ele>1145.07</ele>
        <time>2013-02-17T12:44:58Z</time>
      </trkpt>
      <trkpt lat="45.42029" lon="5.88668">
        <ele>1141.22</ele>
        <time>2013-02-17T12:45:00Z</time>
      </trkpt>
      <trkpt lat="45.42036" lon="5.88659">
        <ele>1136.9</ele>
        <time>2013-02-17T12:45:02Z</time>
      </trkpt>
      <trkpt lat="45.42039" lon="5.8865">
        <ele>1133.05</ele>
        <time>2013-02-17T12:45:05Z</time>
      </trkpt>
      <trkpt lat="45.42039" lon="5.8864">
        <ele>1130.17</ele>
        <time>2013-02-17T12:45:08Z</time>
      </trkpt>
      <trkpt lat="45.4204" lon="5.88626">
        <ele>1128.24</ele>
        <time>2013-02-17T12:45:10Z</time>
      </trkpt>
      <trkpt lat="45.42044" lon="5.88611">
        <ele>1123.92</ele>
        <time>2013-02-17T12:45:13Z</time>
      </trkpt>
      <trkpt lat="45.42046" lon="5.88608">
        <ele>1121.03</ele>
        <time>2013-02-17T12:45:17Z</time>
      </trkpt>
      <trkpt lat="45.42046" lon="5.88607">
        <ele>1120.55</ele>
        <time>2013-02-17T12:45:18Z</time>
      </trkpt>
      <trkpt lat="45.42049" lon="5.88592">
        <ele>1117.67</ele>
        <time>2013-02-17T12:45:27Z</time>
      </trkpt>
      <trkpt lat="45.42058" lon="5.88593">
        <ele>1114.79</ele>
        <time>2013-02-17T12:45:30Z</time>
      </trkpt>
      <trkpt lat="45.42059" lon="5.88588">
        <ele>1113.34</ele>
        <time>2013-02-17T12:45:32Z</time>
      </trkpt>
      <trkpt lat="45.42059" lon="5.88577">
        <ele>1110.46</ele>
        <time>2013-02-17T12:45:34Z</time>
      </trkpt>
      <trkpt lat="45.42065" lon="5.88567">
        <ele>1108.06</ele>
        <time>2013-02-17T12:45:36Z</time>
      </trkpt>
      <trkpt lat="45.42071" lon="5.8855">
        <ele>1102.77</ele>
        <time>2013-02-17T12:45:40Z</time>
      </trkpt>
      <trkpt lat="45.42071" lon="5.88549">
        <ele>1099.89</ele>
        <time>2013-02-17T12:45:52Z</time>
      </trkpt>
      <trkpt lat="45.42072" lon="5.88551">
        <ele>1101.81</ele>
        <time>2013-02-17T12:48:59Z</time>
      </trkpt>
      <trkpt lat="45.42086" lon="5.88533">
        <ele>1097.96</ele>
        <time>2013-02-17T12:49:04Z</time>
      </trkpt>
      <trkpt lat="45.42109" lon="5.8852">
        <ele>1094.12</ele>
        <time>2013-02-17T12:49:07Z</time>
      </trkpt>
      <trkpt lat="45.42124" lon="5.88512">
        <ele>1090.27</ele>
        <time>2013-02-17T12:49:10Z</time>
      </trkpt>
      <trkpt lat="45.42129" lon="5.8851">
        <ele>1089.31</ele>
        <time>2013-02-17T12:49:11Z</time>
      </trkpt>
      <trkpt lat="45.42138" lon="5.88502">
        <ele>1088.35</ele>
        <time>2013-02-17T12:49:13Z</time>
      </trkpt>
      <trkpt lat="45.42152" lon="5.88493">
        <ele>1084.02</ele>
        <time>2013-02-17T12:49:16Z</time>
      </trkpt>
      <trkpt lat="45.42159" lon="5.88487">
        <ele>1080.66</ele>
        <time>2013-02-17T12:49:18Z</time>
      </trkpt>
      <trkpt lat="45.42163" lon="5.88483">
        <ele>1078.74</ele>
        <time>2013-02-17T12:49:19Z</time>
      </trkpt>
      <trkpt lat="45.42189" lon="5.88479">
        <ele>1073.93</ele>
        <time>2013-02-17T12:49:23Z</time>
      </trkpt>
      <trkpt lat="45.42195" lon="5.88479">
        <ele>1073.93</ele>
        <time>2013-02-17T12:49:24Z</time>
      </trkpt>
      <trkpt lat="45.42211" lon="5.88481">
        <ele>1071.53</ele>
        <time>2013-02-17T12:49:28Z</time>
      </trkpt>
      <trkpt lat="45.42234" lon="5.88479">
        <ele>1068.16</ele>
        <time>2013-02-17T12:49:34Z</time>
      </trkpt>
      <trkpt lat="45.42234" lon="5.88477">
        <ele>1067.68</ele>
        <time>2013-02-17T12:49:50Z</time>
      </trkpt>
      <trkpt lat="45.42234" lon="5.88477">
        <ele>1068.16</ele>
        <time>2013-02-17T12:50:28Z</time>
      </trkpt>
      <trkpt lat="45.42234" lon="5.88478">
        <ele>1067.68</ele>
        <time>2013-02-17T12:51:06Z</time>
      </trkpt>
      <trkpt lat="45.42234" lon="5.88477">
        <ele>1068.16</ele>
        <time>2013-02-17T12:51:25Z</time>
      </trkpt>
      <trkpt lat="45.42242" lon="5.88451">
        <ele>1065.76</ele>
        <time>2013-02-17T12:51:31Z</time>
      </trkpt>
      <trkpt lat="45.42249" lon="5.88432">
        <ele>1062.87</ele>
        <time>2013-02-17T12:51:33Z</time>
      </trkpt>
      <trkpt lat="45.42264" lon="5.88421">
        <ele>1059.51</ele>
        <time>2013-02-17T12:51:36Z</time>
      </trkpt>
      <trkpt lat="45.4227" lon="5.88419">
        <ele>1057.59</ele>
        <time>2013-02-17T12:51:38Z</time>
      </trkpt>
      <trkpt lat="45.42277" lon="5.88414">
        <ele>1056.15</ele>
        <time>2013-02-17T12:51:53Z</time>
      </trkpt>
      <trkpt lat="45.42286" lon="5.88407">
        <ele>1054.7</ele>
        <time>2013-02-17T12:52:01Z</time>
      </trkpt>
      <trkpt lat="45.42286" lon="5.88407">
        <ele>1054.22</ele>
        <time>2013-02-17T12:52:10Z</time>
      </trkpt>
      <trkpt lat="45.42285" lon="5.88408">
        <ele>1054.22</ele>
        <time>2013-02-17T12:52:13Z</time>
      </trkpt>
      <trkpt lat="45.42281" lon="5.88408">
        <ele>1054.22</ele>
        <time>2013-02-17T12:52:23Z</time>
      </trkpt>
      <trkpt lat="45.4228" lon="5.88407">
        <ele>1053.74</ele>
        <time>2013-02-17T12:52:39Z</time>
      </trkpt>
      <trkpt lat="45.4228" lon="5.88407">
        <ele>1053.74</ele>
        <time>2013-02-17T12:52:40Z</time>
      </trkpt>
      <trkpt lat="45.42268" lon="5.88391">
        <ele>1052.3</ele>
        <time>2013-02-17T12:52:45Z</time>
      </trkpt>
      <trkpt lat="45.42256" lon="5.88383">
        <ele>1049.42</ele>
        <time>2013-02-17T12:52:47Z</time>
      </trkpt>
      <trkpt lat="45.42254" lon="5.88365">
        <ele>1043.17</ele>
        <time>2013-02-17T12:52:50Z</time>
      </trkpt>
      <trkpt lat="45.42251" lon="5.8836">
        <ele>1043.17</ele>
        <time>2013-02-17T12:52:51Z</time>
      </trkpt>
      <trkpt lat="45.42242" lon="5.88352">
        <ele>1038.84</ele>
        <time>2013-02-17T12:52:53Z</time>
      </trkpt>
      <trkpt lat="45.42242" lon="5.88336">
        <ele>1034.52</ele>
        <time>2013-02-17T12:52:55Z</time>
      </trkpt>
      <trkpt lat="45.42242" lon="5.88329">
        <ele>1032.59</ele>
        <time>2013-02-17T12:52:56Z</time>
      </trkpt>
      <trkpt lat="45.42242" lon="5.88313">
        <ele>1026.34</ele>
        <time>2013-02-17T12:52:59Z</time>
      </trkpt>
      <trkpt lat="45.42239" lon="5.88302">
        <ele>1024.9</ele>
        <time>2013-02-17T12:53:01Z</time>
      </trkpt>
      <trkpt lat="45.42229" lon="5.88279">
        <ele>1021.54</ele>
        <time>2013-02-17T12:53:04Z</time>
      </trkpt>
      <trkpt lat="45.42226" lon="5.88269">
        <ele>1020.58</ele>
        <time>2013-02-17T12:53:05Z</time>
      </trkpt>
      <trkpt lat="45.42214" lon="5.88243">
        <ele>1016.73</ele>
        <time>2013-02-17T12:53:08Z</time>
      </trkpt>
      <trkpt lat="45.42209" lon="5.88217">
        <ele>1011.44</ele>
        <time>2013-02-17T12:53:11Z</time>
      </trkpt>
      <trkpt lat="45.42209" lon="5.8821">
        <ele>1011.44</ele>
        <time>2013-02-17T12:53:12Z</time>
      </trkpt>
      <trkpt lat="45.42205" lon="5.88187">
        <ele>1007.12</ele>
        <time>2013-02-17T12:53:15Z</time>
      </trkpt>
      <trkpt lat="45.42214" lon="5.88163">
        <ele>1003.27</ele>
        <time>2013-02-17T12:53:18Z</time>
      </trkpt>
      <trkpt lat="45.42217" lon="5.88141">
        <ele>997.02</ele>
        <time>2013-02-17T12:53:21Z</time>
      </trkpt>
      <trkpt lat="45.42217" lon="5.88133">
        <ele>995.58</ele>
        <time>2013-02-17T12:53:23Z</time>
      </trkpt>
      <trkpt lat="45.42213" lon="5.88127">
        <ele>992.22</ele>
        <time>2013-02-17T12:53:25Z</time>
      </trkpt>
      <trkpt lat="45.42208" lon="5.88099">
        <ele>988.85</ele>
        <time>2013-02-17T12:53:31Z</time>
      </trkpt>
      <trkpt lat="45.42199" lon="5.88083">
        <ele>986.93</ele>
        <time>2013-02-17T12:53:34Z</time>
      </trkpt>
      <trkpt lat="45.42186" lon="5.88053">
        <ele>983.09</ele>
        <time>2013-02-17T12:53:38Z</time>
      </trkpt>
      <trkpt lat="45.42176" lon="5.88023">
        <ele>979.72</ele>
        <time>2013-02-17T12:53:41Z</time>
      </trkpt>
      <trkpt lat="45.42167" lon="5.87995">
        <ele>976.36</ele>
        <time>2013-02-17T12:53:44Z</time>
      </trkpt>
      <trkpt lat="45.42165" lon="5.87987">
        <ele>976.36</ele>
        <time>2013-02-17T12:53:45Z</time>
      </trkpt>
      <trkpt lat="45.42153" lon="5.87955">
        <ele>972.99</ele>
        <time>2013-02-17T12:53:50Z</time>
      </trkpt>
      <trkpt lat="45.42138" lon="5.87909">
        <ele>969.63</ele>
        <time>2013-02-17T12:53:58Z</time>
      </trkpt>
      <trkpt lat="45.42135" lon="5.87897">
        <ele>968.67</ele>
        <time>2013-02-17T12:54:00Z</time>
      </trkpt>
      <trkpt lat="45.42135" lon="5.8787">
        <ele>964.34</ele>
        <time>2013-02-17T12:54:05Z</time>
      </trkpt>
      <trkpt lat="45.42136" lon="5.87867">
        <ele>963.86</ele>
        <time>2013-02-17T12:54:07Z</time>
      </trkpt>
      <trkpt lat="45.42137" lon="5.87865">
        <ele>962.42</ele>
        <time>2013-02-17T12:54:26Z</time>
      </trkpt>
      <trkpt lat="45.42138" lon="5.87864">
        <ele>960.49</ele>
        <time>2013-02-17T12:54:37Z</time>
      </trkpt>
      <trkpt lat="45.42138" lon="5.87865">
        <ele>960.49</ele>
        <time>2013-02-17T12:54:51Z</time>
      </trkpt>
      <trkpt lat="45.42137" lon="5.87855">
        <ele>960.01</ele>
        <time>2013-02-17T12:55:12Z</time>
      </trkpt>
      <trkpt lat="45.42137" lon="5.87855">
        <ele>959.53</ele>
        <time>2013-02-17T12:55:35Z</time>
      </trkpt>
      <trkpt lat="45.42137" lon="5.8786">
        <ele>960.01</ele>
        <time>2013-02-17T12:55:53Z</time>
      </trkpt>
      <trkpt lat="45.42139" lon="5.87862">
        <ele>960.01</ele>
        <time>2013-02-17T12:56:10Z</time>
      </trkpt>
      <trkpt lat="45.42138" lon="5.87864">
        <ele>960.01</ele>
        <time>2013-02-17T12:56:30Z</time>
      </trkpt>
      <trkpt lat="45.42141" lon="5.87855">
        <ele>959.53</ele>
        <time>2013-02-17T12:56:48Z</time>
      </trkpt>
      <trkpt lat="45.42141" lon="5.87855">
        <ele>958.57</ele>
        <time>2013-02-17T12:57:14Z</time>
      </trkpt>
      <trkpt lat="45.42138" lon="5.87854">
        <ele>958.57</ele>
        <time>2013-02-17T12:57:34Z</time>
      </trkpt>
      <trkpt lat="45.42138" lon="5.87854">
        <ele>958.09</ele>
        <time>2013-02-17T12:58:04Z</time>
      </trkpt>
      <trkpt lat="45.42138" lon="5.87853">
        <ele>958.09</ele>
        <time>2013-02-17T12:58:17Z</time>
      </trkpt>
      <trkpt lat="45.42135" lon="5.87852">
        <ele>957.61</ele>
        <time>2013-02-17T12:58:41Z</time>
      </trkpt>
      <trkpt lat="45.42137" lon="5.87856">
        <ele>957.61</ele>
        <time>2013-02-17T12:59:39Z</time>
      </trkpt>
      <trkpt lat="45.42136" lon="5.87858">
        <ele>957.61</ele>
        <time>2013-02-17T12:59:54Z</time>
      </trkpt>
      <trkpt lat="45.42137" lon="5.87859">
        <ele>957.61</ele>
        <time>2013-02-17T13:00:07Z</time>
      </trkpt>
      <trkpt lat="45.42139" lon="5.87859">
        <ele>958.09</ele>
        <time>2013-02-17T13:00:32Z</time>
      </trkpt>
      <trkpt lat="45.42139" lon="5.87863">
        <ele>957.13</ele>
        <time>2013-02-17T13:00:58Z</time>
      </trkpt>
      <trkpt lat="45.42139" lon="5.87864">
        <ele>956.65</ele>
        <time>2013-02-17T13:01:14Z</time>
      </trkpt>
      <trkpt lat="45.4214" lon="5.87863">
        <ele>956.65</ele>
        <time>2013-02-17T13:01:24Z</time>
      </trkpt>
      <trkpt lat="45.4214" lon="5.87863">
        <ele>957.13</ele>
        <time>2013-02-17T13:01:38Z</time>
      </trkpt>
      <trkpt lat="45.42141" lon="5.87862">
        <ele>956.65</ele>
        <time>2013-02-17T13:02:00Z</time>
      </trkpt>
      <trkpt lat="45.42141" lon="5.87863">
        <ele>956.65</ele>
        <time>2013-02-17T13:02:14Z</time>
      </trkpt>
      <trkpt lat="45.42141" lon="5.87863">
        <ele>956.65</ele>
        <time>2013-02-17T13:02:37Z</time>
      </trkpt>
      <trkpt lat="45.42141" lon="5.87861">
        <ele>956.65</ele>
        <time>2013-02-17T13:03:07Z</time>
      </trkpt>
      <trkpt lat="45.42141" lon="5.87862">
        <ele>956.65</ele>
        <time>2013-02-17T13:03:21Z</time>
      </trkpt>
      <trkpt lat="45.42139" lon="5.87864">
        <ele>955.69</ele>
        <time>2013-02-17T13:03:55Z</time>
      </trkpt>
      <trkpt lat="45.42141" lon="5.87862">
        <ele>956.17</ele>
        <time>2013-02-17T13:04:10Z</time>
      </trkpt>
      <trkpt lat="45.42141" lon="5.87859">
        <ele>955.21</ele>
        <time>2013-02-17T13:04:23Z</time>
      </trkpt>
      <trkpt lat="45.4214" lon="5.87862">
        <ele>955.69</ele>
        <time>2013-02-17T13:04:38Z</time>
      </trkpt>
      <trkpt lat="45.42139" lon="5.87861">
        <ele>956.17</ele>
        <time>2013-02-17T13:04:50Z</time>
      </trkpt>
      <trkpt lat="45.42135" lon="5.87855">
        <ele>955.21</ele>
        <time>2013-02-17T13:04:59Z</time>
      </trkpt>
      <trkpt lat="45.42137" lon="5.87861">
        <ele>955.69</ele>
        <time>2013-02-17T13:05:11Z</time>
      </trkpt>
      <trkpt lat="45.42139" lon="5.87864">
        <ele>956.65</ele>
        <time>2013-02-17T13:05:30Z</time>
      </trkpt>
      <trkpt lat="45.4214" lon="5.87866">
        <ele>956.17</ele>
        <time>2013-02-17T13:05:42Z</time>
      </trkpt>
      <trkpt lat="45.4214" lon="5.87868">
        <ele>956.65</ele>
        <time>2013-02-17T13:05:45Z</time>
      </trkpt>
      <trkpt lat="45.42137" lon="5.87876">
        <ele>958.09</ele>
        <time>2013-02-17T13:05:56Z</time>
      </trkpt>
      <trkpt lat="45.42133" lon="5.87886">
        <ele>959.05</ele>
        <time>2013-02-17T13:06:08Z</time>
      </trkpt>
      <trkpt lat="45.42128" lon="5.87891">
        <ele>959.53</ele>
        <time>2013-02-17T13:06:16Z</time>
      </trkpt>
      <trkpt lat="45.42116" lon="5.87895">
        <ele>960.01</ele>
        <time>2013-02-17T13:06:32Z</time>
      </trkpt>
      <trkpt lat="45.42113" lon="5.87896">
        <ele>960.01</ele>
        <time>2013-02-17T13:06:47Z</time>
      </trkpt>
      <trkpt lat="45.42113" lon="5.87896">
        <ele>959.53</ele>
        <time>2013-02-17T13:07:19Z</time>
      </trkpt>
      <trkpt lat="45.42108" lon="5.87897">
        <ele>959.53</ele>
        <time>2013-02-17T13:07:39Z</time>
      </trkpt>
      <trkpt lat="45.42098" lon="5.87896">
        <ele>959.05</ele>
        <time>2013-02-17T13:07:49Z</time>
      </trkpt>
      <trkpt lat="45.42084" lon="5.87897">
        <ele>959.53</ele>
        <time>2013-02-17T13:08:03Z</time>
      </trkpt>
      <trkpt lat="45.42072" lon="5.879">
        <ele>960.01</ele>
        <time>2013-02-17T13:08:16Z</time>
      </trkpt>
      <trkpt lat="45.42062" lon="5.87902">
        <ele>960.49</ele>
        <time>2013-02-17T13:08:29Z</time>
      </trkpt>
      <trkpt lat="45.42056" lon="5.87905">
        <ele>960.49</ele>
        <time>2013-02-17T13:08:37Z</time>
      </trkpt>
      <trkpt lat="45.42046" lon="5.87903">
        <ele>960.49</ele>
        <time>2013-02-17T13:08:45Z</time>
      </trkpt>
      <trkpt lat="45.42031" lon="5.87891">
        <ele>960.98</ele>
        <time>2013-02-17T13:09:01Z</time>
      </trkpt>
      <trkpt lat="45.42029" lon="5.87887">
        <ele>960.01</ele>
        <time>2013-02-17T13:09:06Z</time>
      </trkpt>
      <trkpt lat="45.42027" lon="5.87883">
        <ele>960.01</ele>
        <time>2013-02-17T13:09:10Z</time>
      </trkpt>
      <trkpt lat="45.42022" lon="5.87874">
        <ele>959.05</ele>
        <time>2013-02-17T13:09:19Z</time>
      </trkpt>
      <trkpt lat="45.42011" lon="5.87865">
        <ele>961.46</ele>
        <time>2013-02-17T13:09:35Z</time>
      </trkpt>
      <trkpt lat="45.4201" lon="5.8786">
        <ele>961.94</ele>
        <time>2013-02-17T13:09:40Z</time>
      </trkpt>
      <trkpt lat="45.42008" lon="5.87857">
        <ele>961.94</ele>
        <time>2013-02-17T13:09:42Z</time>
      </trkpt>
      <trkpt lat="45.42001" lon="5.87852">
        <ele>963.38</ele>
        <time>2013-02-17T13:09:54Z</time>
      </trkpt>
      <trkpt lat="45.41997" lon="5.87848">
        <ele>964.82</ele>
        <time>2013-02-17T13:10:04Z</time>
      </trkpt>
      <trkpt lat="45.4199" lon="5.87842">
        <ele>966.26</ele>
        <time>2013-02-17T13:10:18Z</time>
      </trkpt>
      <trkpt lat="45.41984" lon="5.87838">
        <ele>967.22</ele>
        <time>2013-02-17T13:10:28Z</time>
      </trkpt>
      <trkpt lat="45.41977" lon="5.87833">
        <ele>969.15</ele>
        <time>2013-02-17T13:10:41Z</time>
      </trkpt>
      <trkpt lat="45.41973" lon="5.87829">
        <ele>968.67</ele>
        <time>2013-02-17T13:10:59Z</time>
      </trkpt>
      <trkpt lat="45.41973" lon="5.87829">
        <ele>968.67</ele>
        <time>2013-02-17T13:11:18Z</time>
      </trkpt>
      <trkpt lat="45.41969" lon="5.87828">
        <ele>968.67</ele>
        <time>2013-02-17T13:11:28Z</time>
      </trkpt>
      <trkpt lat="45.41962" lon="5.8782">
        <ele>971.07</ele>
        <time>2013-02-17T13:11:39Z</time>
      </trkpt>
      <trkpt lat="45.41955" lon="5.87811">
        <ele>972.51</ele>
        <time>2013-02-17T13:11:51Z</time>
      </trkpt>
      <trkpt lat="45.41952" lon="5.87809">
        <ele>972.51</ele>
        <time>2013-02-17T13:12:00Z</time>
      </trkpt>
      <trkpt lat="45.41942" lon="5.87795">
        <ele>973.47</ele>
        <time>2013-02-17T13:12:14Z</time>
      </trkpt>
      <trkpt lat="45.41939" lon="5.87791">
        <ele>974.43</ele>
        <time>2013-02-17T13:12:19Z</time>
      </trkpt>
      <trkpt lat="45.4193" lon="5.87785">
        <ele>975.88</ele>
        <time>2013-02-17T13:12:31Z</time>
      </trkpt>
      <trkpt lat="45.41924" lon="5.87777">
        <ele>977.32</ele>
        <time>2013-02-17T13:12:43Z</time>
      </trkpt>
      <trkpt lat="45.41919" lon="5.87767">
        <ele>978.76</ele>
        <time>2013-02-17T13:12:55Z</time>
      </trkpt>
      <trkpt lat="45.41914" lon="5.87763">
        <ele>980.2</ele>
        <time>2013-02-17T13:13:02Z</time>
      </trkpt>
      <trkpt lat="45.41911" lon="5.87758">
        <ele>981.16</ele>
        <time>2013-02-17T13:13:07Z</time>
      </trkpt>
      <trkpt lat="45.41906" lon="5.87749">
        <ele>984.53</ele>
        <time>2013-02-17T13:13:19Z</time>
      </trkpt>
      <trkpt lat="45.41901" lon="5.87746">
        <ele>986.93</ele>
        <time>2013-02-17T13:13:32Z</time>
      </trkpt>
      <trkpt lat="45.41898" lon="5.87753">
        <ele>988.85</ele>
        <time>2013-02-17T13:13:43Z</time>
      </trkpt>
      <trkpt lat="45.41895" lon="5.87757">
        <ele>990.78</ele>
        <time>2013-02-17T13:13:53Z</time>
      </trkpt>
      <trkpt lat="45.41894" lon="5.87759">
        <ele>991.74</ele>
        <time>2013-02-17T13:13:57Z</time>
      </trkpt>
      <trkpt lat="45.41891" lon="5.87764">
        <ele>992.7</ele>
        <time>2013-02-17T13:14:04Z</time>
      </trkpt>
      <trkpt lat="45.41888" lon="5.8777">
        <ele>995.1</ele>
        <time>2013-02-17T13:14:17Z</time>
      </trkpt>
      <trkpt lat="45.41886" lon="5.87765">
        <ele>996.06</ele>
        <time>2013-02-17T13:14:28Z</time>
      </trkpt>
      <trkpt lat="45.41881" lon="5.87759">
        <ele>997.99</ele>
        <time>2013-02-17T13:14:39Z</time>
      </trkpt>
      <trkpt lat="45.41875" lon="5.87752">
        <ele>999.43</ele>
        <time>2013-02-17T13:14:51Z</time>
      </trkpt>
      <trkpt lat="45.41871" lon="5.87746">
        <ele>1000.87</ele>
        <time>2013-02-17T13:15:00Z</time>
      </trkpt>
      <trkpt lat="45.41863" lon="5.87738">
        <ele>1003.27</ele>
        <time>2013-02-17T13:15:14Z</time>
      </trkpt>
      <trkpt lat="45.4186" lon="5.87735">
        <ele>1004.72</ele>
        <time>2013-02-17T13:15:25Z</time>
      </trkpt>
      <trkpt lat="45.41854" lon="5.87731">
        <ele>1006.64</ele>
        <time>2013-02-17T13:15:38Z</time>
      </trkpt>
      <trkpt lat="45.41851" lon="5.87727">
        <ele>1008.08</ele>
        <time>2013-02-17T13:15:47Z</time>
      </trkpt>
      <trkpt lat="45.41845" lon="5.87718">
        <ele>1010</ele>
        <time>2013-02-17T13:15:58Z</time>
      </trkpt>
      <trkpt lat="45.41842" lon="5.87708">
        <ele>1012.41</ele>
        <time>2013-02-17T13:16:09Z</time>
      </trkpt>
      <trkpt lat="45.41838" lon="5.87697">
        <ele>1013.85</ele>
        <time>2013-02-17T13:16:21Z</time>
      </trkpt>
      <trkpt lat="45.41836" lon="5.87686">
        <ele>1015.29</ele>
        <time>2013-02-17T13:16:31Z</time>
      </trkpt>
      <trkpt lat="45.41834" lon="5.87674">
        <ele>1017.21</ele>
        <time>2013-02-17T13:16:42Z</time>
      </trkpt>
      <trkpt lat="45.41832" lon="5.87671">
        <ele>1018.17</ele>
        <time>2013-02-17T13:16:45Z</time>
      </trkpt>
      <trkpt lat="45.41824" lon="5.87662">
        <ele>1020.1</ele>
        <time>2013-02-17T13:16:58Z</time>
      </trkpt>
      <trkpt lat="45.41819" lon="5.8766">
        <ele>1021.06</ele>
        <time>2013-02-17T13:17:09Z</time>
      </trkpt>
      <trkpt lat="45.4181" lon="5.87653">
        <ele>1023.46</ele>
        <time>2013-02-17T13:17:23Z</time>
      </trkpt>
      <trkpt lat="45.418" lon="5.87651">
        <ele>1024.9</ele>
        <time>2013-02-17T13:17:37Z</time>
      </trkpt>
      <trkpt lat="45.4179" lon="5.87649">
        <ele>1027.79</ele>
        <time>2013-02-17T13:17:50Z</time>
      </trkpt>
      <trkpt lat="45.41785" lon="5.87647">
        <ele>1028.75</ele>
        <time>2013-02-17T13:17:59Z</time>
      </trkpt>
      <trkpt lat="45.41776" lon="5.87647">
        <ele>1031.63</ele>
        <time>2013-02-17T13:18:12Z</time>
      </trkpt>
      <trkpt lat="45.41769" lon="5.87652">
        <ele>1033.55</ele>
        <time>2013-02-17T13:18:25Z</time>
      </trkpt>
      <trkpt lat="45.41766" lon="5.87654">
        <ele>1034.04</ele>
        <time>2013-02-17T13:18:41Z</time>
      </trkpt>
      <trkpt lat="45.41763" lon="5.8766">
        <ele>1034.52</ele>
        <time>2013-02-17T13:19:29Z</time>
      </trkpt>
      <trkpt lat="45.41754" lon="5.8767">
        <ele>1034.52</ele>
        <time>2013-02-17T13:19:42Z</time>
      </trkpt>
      <trkpt lat="45.41749" lon="5.87675">
        <ele>1035</ele>
        <time>2013-02-17T13:20:03Z</time>
      </trkpt>
      <trkpt lat="45.4174" lon="5.87688">
        <ele>1036.44</ele>
        <time>2013-02-17T13:20:16Z</time>
      </trkpt>
      <trkpt lat="45.41731" lon="5.87702">
        <ele>1037.4</ele>
        <time>2013-02-17T13:20:29Z</time>
      </trkpt>
      <trkpt lat="45.41727" lon="5.87708">
        <ele>1037.4</ele>
        <time>2013-02-17T13:20:36Z</time>
      </trkpt>
      <trkpt lat="45.41713" lon="5.87724">
        <ele>1038.36</ele>
        <time>2013-02-17T13:20:53Z</time>
      </trkpt>
      <trkpt lat="45.41703" lon="5.87737">
        <ele>1039.8</ele>
        <time>2013-02-17T13:21:06Z</time>
      </trkpt>
      <trkpt lat="45.41691" lon="5.87755">
        <ele>1040.28</ele>
        <time>2013-02-17T13:21:22Z</time>
      </trkpt>
      <trkpt lat="45.41679" lon="5.87775">
        <ele>1041.25</ele>
        <time>2013-02-17T13:21:37Z</time>
      </trkpt>
      <trkpt lat="45.41672" lon="5.87788">
        <ele>1041.25</ele>
        <time>2013-02-17T13:21:48Z</time>
      </trkpt>
      <trkpt lat="45.41666" lon="5.87807">
        <ele>1042.69</ele>
        <time>2013-02-17T13:22:02Z</time>
      </trkpt>
      <trkpt lat="45.41656" lon="5.87822">
        <ele>1044.13</ele>
        <time>2013-02-17T13:22:17Z</time>
      </trkpt>
      <trkpt lat="45.41643" lon="5.87834">
        <ele>1045.57</ele>
        <time>2013-02-17T13:22:31Z</time>
      </trkpt>
      <trkpt lat="45.41635" lon="5.87842">
        <ele>1047.49</ele>
        <time>2013-02-17T13:22:41Z</time>
      </trkpt>
      <trkpt lat="45.41622" lon="5.87858">
        <ele>1050.38</ele>
        <time>2013-02-17T13:23:00Z</time>
      </trkpt>
      <trkpt lat="45.41613" lon="5.87872">
        <ele>1051.82</ele>
        <time>2013-02-17T13:23:14Z</time>
      </trkpt>
      <trkpt lat="45.41604" lon="5.87889">
        <ele>1052.3</ele>
        <time>2013-02-17T13:23:28Z</time>
      </trkpt>
      <trkpt lat="45.41597" lon="5.87904">
        <ele>1053.74</ele>
        <time>2013-02-17T13:23:41Z</time>
      </trkpt>
      <trkpt lat="45.41589" lon="5.87917">
        <ele>1054.7</ele>
        <time>2013-02-17T13:23:52Z</time>
      </trkpt>
      <trkpt lat="45.41582" lon="5.87928">
        <ele>1055.18</ele>
        <time>2013-02-17T13:24:01Z</time>
      </trkpt>
      <trkpt lat="45.41574" lon="5.87944">
        <ele>1057.11</ele>
        <time>2013-02-17T13:24:17Z</time>
      </trkpt>
      <trkpt lat="45.41571" lon="5.87954">
        <ele>1058.55</ele>
        <time>2013-02-17T13:24:28Z</time>
      </trkpt>
      <trkpt lat="45.41565" lon="5.8797">
        <ele>1059.03</ele>
        <time>2013-02-17T13:24:40Z</time>
      </trkpt>
      <trkpt lat="45.41554" lon="5.87987">
        <ele>1058.55</ele>
        <time>2013-02-17T13:24:53Z</time>
      </trkpt>
      <trkpt lat="45.41543" lon="5.8801">
        <ele>1058.55</ele>
        <time>2013-02-17T13:25:09Z</time>
      </trkpt>
      <trkpt lat="45.41536" lon="5.88024">
        <ele>1058.07</ele>
        <time>2013-02-17T13:25:18Z</time>
      </trkpt>
      <trkpt lat="45.41533" lon="5.88038">
        <ele>1059.51</ele>
        <time>2013-02-17T13:25:28Z</time>
      </trkpt>
      <trkpt lat="45.41529" lon="5.88046">
        <ele>1060.47</ele>
        <time>2013-02-17T13:25:35Z</time>
      </trkpt>
      <trkpt lat="45.41525" lon="5.88048">
        <ele>1060.95</ele>
        <time>2013-02-17T13:25:40Z</time>
      </trkpt>
      <trkpt lat="45.41514" lon="5.88053">
        <ele>1060.47</ele>
        <time>2013-02-17T13:25:50Z</time>
      </trkpt>
      <trkpt lat="45.41507" lon="5.8806">
        <ele>1061.91</ele>
        <time>2013-02-17T13:26:02Z</time>
      </trkpt>
      <trkpt lat="45.41504" lon="5.88061">
        <ele>1061.91</ele>
        <time>2013-02-17T13:26:05Z</time>
      </trkpt>
      <trkpt lat="45.41496" lon="5.88072">
        <ele>1061.43</ele>
        <time>2013-02-17T13:26:13Z</time>
      </trkpt>
      <trkpt lat="45.41486" lon="5.88085">
        <ele>1061.43</ele>
        <time>2013-02-17T13:26:24Z</time>
      </trkpt>
      <trkpt lat="45.41474" lon="5.88103">
        <ele>1062.39</ele>
        <time>2013-02-17T13:26:40Z</time>
      </trkpt>
      <trkpt lat="45.41469" lon="5.88115">
        <ele>1063.36</ele>
        <time>2013-02-17T13:26:51Z</time>
      </trkpt>
      <trkpt lat="45.41463" lon="5.88123">
        <ele>1064.32</ele>
        <time>2013-02-17T13:26:58Z</time>
      </trkpt>
      <trkpt lat="45.41457" lon="5.88137">
        <ele>1065.28</ele>
        <time>2013-02-17T13:27:10Z</time>
      </trkpt>
      <trkpt lat="45.41452" lon="5.88149">
        <ele>1066.24</ele>
        <time>2013-02-17T13:27:21Z</time>
      </trkpt>
      <trkpt lat="45.41445" lon="5.88168">
        <ele>1067.68</ele>
        <time>2013-02-17T13:27:37Z</time>
      </trkpt>
      <trkpt lat="45.41444" lon="5.8817">
        <ele>1068.16</ele>
        <time>2013-02-17T13:27:39Z</time>
      </trkpt>
      <trkpt lat="45.41441" lon="5.88176">
        <ele>1068.64</ele>
        <time>2013-02-17T13:27:46Z</time>
      </trkpt>
      <trkpt lat="45.41439" lon="5.88179">
        <ele>1068.64</ele>
        <time>2013-02-17T13:27:49Z</time>
      </trkpt>
      <trkpt lat="45.41436" lon="5.88187">
        <ele>1069.6</ele>
        <time>2013-02-17T13:27:56Z</time>
      </trkpt>
      <trkpt lat="45.4143" lon="5.88201">
        <ele>1070.57</ele>
        <time>2013-02-17T13:28:09Z</time>
      </trkpt>
      <trkpt lat="45.41421" lon="5.88216">
        <ele>1072.01</ele>
        <time>2013-02-17T13:28:23Z</time>
      </trkpt>
      <trkpt lat="45.41417" lon="5.88226">
        <ele>1073.45</ele>
        <time>2013-02-17T13:28:33Z</time>
      </trkpt>
      <trkpt lat="45.41407" lon="5.88235">
        <ele>1073.45</ele>
        <time>2013-02-17T13:28:45Z</time>
      </trkpt>
      <trkpt lat="45.41388" lon="5.88249">
        <ele>1072.01</ele>
        <time>2013-02-17T13:28:58Z</time>
      </trkpt>
      <trkpt lat="45.41379" lon="5.88257">
        <ele>1071.53</ele>
        <time>2013-02-17T13:29:07Z</time>
      </trkpt>
      <trkpt lat="45.41368" lon="5.88271">
        <ele>1070.08</ele>
        <time>2013-02-17T13:29:20Z</time>
      </trkpt>
      <trkpt lat="45.41358" lon="5.88295">
        <ele>1067.68</ele>
        <time>2013-02-17T13:29:36Z</time>
      </trkpt>
      <trkpt lat="45.4135" lon="5.88314">
        <ele>1066.24</ele>
        <time>2013-02-17T13:29:48Z</time>
      </trkpt>
      <trkpt lat="45.41348" lon="5.88322">
        <ele>1064.8</ele>
        <time>2013-02-17T13:30:01Z</time>
      </trkpt>
      <trkpt lat="45.41343" lon="5.88342">
        <ele>1063.84</ele>
        <time>2013-02-17T13:30:12Z</time>
      </trkpt>
      <trkpt lat="45.41337" lon="5.88375">
        <ele>1061.43</ele>
        <time>2013-02-17T13:30:29Z</time>
      </trkpt>
      <trkpt lat="45.41331" lon="5.88407">
        <ele>1059.51</ele>
        <time>2013-02-17T13:30:43Z</time>
      </trkpt>
      <trkpt lat="45.41325" lon="5.88424">
        <ele>1058.07</ele>
        <time>2013-02-17T13:30:55Z</time>
      </trkpt>
      <trkpt lat="45.41324" lon="5.88428">
        <ele>1057.59</ele>
        <time>2013-02-17T13:31:01Z</time>
      </trkpt>
      <trkpt lat="45.41322" lon="5.8844">
        <ele>1057.59</ele>
        <time>2013-02-17T13:31:06Z</time>
      </trkpt>
      <trkpt lat="45.41312" lon="5.88473">
        <ele>1056.15</ele>
        <time>2013-02-17T13:31:19Z</time>
      </trkpt>
      <trkpt lat="45.41306" lon="5.88497">
        <ele>1054.7</ele>
        <time>2013-02-17T13:31:30Z</time>
      </trkpt>
      <trkpt lat="45.41306" lon="5.8851">
        <ele>1054.22</ele>
        <time>2013-02-17T13:31:40Z</time>
      </trkpt>
      <trkpt lat="45.41306" lon="5.88513">
        <ele>1053.74</ele>
        <time>2013-02-17T13:31:50Z</time>
      </trkpt>
      <trkpt lat="45.41301" lon="5.88535">
        <ele>1052.3</ele>
        <time>2013-02-17T13:32:00Z</time>
      </trkpt>
      <trkpt lat="45.41293" lon="5.88561">
        <ele>1051.34</ele>
        <time>2013-02-17T13:32:14Z</time>
      </trkpt>
      <trkpt lat="45.41287" lon="5.8859">
        <ele>1050.38</ele>
        <time>2013-02-17T13:32:28Z</time>
      </trkpt>
      <trkpt lat="45.41283" lon="5.88625">
        <ele>1048.94</ele>
        <time>2013-02-17T13:32:45Z</time>
      </trkpt>
      <trkpt lat="45.41282" lon="5.88629">
        <ele>1047.49</ele>
        <time>2013-02-17T13:32:59Z</time>
      </trkpt>
      <trkpt lat="45.4128" lon="5.8863">
        <ele>1047.49</ele>
        <time>2013-02-17T13:33:23Z</time>
      </trkpt>
      <trkpt lat="45.41267" lon="5.88641">
        <ele>1046.05</ele>
        <time>2013-02-17T13:33:34Z</time>
      </trkpt>
      <trkpt lat="45.41256" lon="5.88654">
        <ele>1046.53</ele>
        <time>2013-02-17T13:33:45Z</time>
      </trkpt>
      <trkpt lat="45.41248" lon="5.88666">
        <ele>1046.53</ele>
        <time>2013-02-17T13:33:57Z</time>
      </trkpt>
      <trkpt lat="45.41247" lon="5.88668">
        <ele>1046.53</ele>
        <time>2013-02-17T13:34:10Z</time>
      </trkpt>
      <trkpt lat="45.41247" lon="5.88667">
        <ele>1045.57</ele>
        <time>2013-02-17T13:34:30Z</time>
      </trkpt>
      <trkpt lat="45.41247" lon="5.88667">
        <ele>1046.05</ele>
        <time>2013-02-17T13:34:43Z</time>
      </trkpt>
      <trkpt lat="45.41247" lon="5.88668">
        <ele>1046.53</ele>
        <time>2013-02-17T13:35:12Z</time>
      </trkpt>
      <trkpt lat="45.41247" lon="5.88667">
        <ele>1046.05</ele>
        <time>2013-02-17T13:35:48Z</time>
      </trkpt>
    </trkseg>
  </trk>
</gpx>